<?xml version="1.0" encoding="UTF-8" standalone="no" ?>
<gpx xmlns="http://www.topografix.com/GPX/1/1" xmlns:xsi="http://www.w3.org/2001/XMLSchema-instance" xsi:schemaLocation="http://www.topografix.com/GPX/1/1 http://www.topografix.com/GPX/1/1/gpx.xsd" version="1.1" creator="VisuGPX - https://www.visugpx.com">
  <metadata>
    <name>Molkenrain_Huffholtz</name>
    <desc><![CDATA[Suite de la ballade Huffholtz_Molkenrain]]></desc>
  </metadata>
  <trk>
    <name><![CDATA[26 juil. 2014 16:33:19]]></name>
    <cmt><![CDATA[26 juil. 2014 16:33:19]]></cmt>
    <desc><![CDATA[{DC1}Heure de fin	: 
Durée totale	: 0h00:00
Moyenne globale	: -
Aire incluse	: 0.0000 ha
Détails par segments
distance  | durée    | vit.moy. | vit.max. | déniv. + | déniv -
   km     | hh:mn:ss |   km/h   |   km/h   |    m     |    m
     0.00 | 00:00:00 |      0.0 |      0.0 |        0 |        0{DC2}
]]></desc>
    <trkseg>
      <trkpt lat="47.85231" lon="7.13021">
        <ele>1097.2</ele>
      </trkpt>
      <trkpt lat="47.85291" lon="7.13312">
        <ele>1087</ele>
        <time>2014-07-26T15:35:09Z</time>
      </trkpt>
      <trkpt lat="47.85234" lon="7.13304">
        <ele>1090</ele>
        <time>2014-07-26T15:35:12Z</time>
      </trkpt>
      <trkpt lat="47.85148" lon="7.13292">
        <ele>1092</ele>
        <time>2014-07-26T15:35:15Z</time>
      </trkpt>
      <trkpt lat="47.85133" lon="7.13282">
        <ele>1091</ele>
        <time>2014-07-26T15:35:17Z</time>
      </trkpt>
      <trkpt lat="47.85132" lon="7.13277">
        <ele>1082</ele>
        <time>2014-07-26T15:35:31Z</time>
      </trkpt>
      <trkpt lat="47.85123" lon="7.13289">
        <ele>1076</ele>
        <time>2014-07-26T15:35:47Z</time>
      </trkpt>
      <trkpt lat="47.85128" lon="7.13286">
        <ele>1077</ele>
        <time>2014-07-26T15:36:25Z</time>
      </trkpt>
      <trkpt lat="47.85133" lon="7.13283">
        <ele>1078</ele>
        <time>2014-07-26T15:36:28Z</time>
      </trkpt>
      <trkpt lat="47.85138" lon="7.1328">
        <ele>1081</ele>
        <time>2014-07-26T15:36:34Z</time>
      </trkpt>
      <trkpt lat="47.8514" lon="7.13274">
        <ele>1082</ele>
        <time>2014-07-26T15:36:38Z</time>
      </trkpt>
      <trkpt lat="47.85144" lon="7.13271">
        <ele>1084</ele>
        <time>2014-07-26T15:36:42Z</time>
      </trkpt>
      <trkpt lat="47.85152" lon="7.13265">
        <ele>1084</ele>
        <time>2014-07-26T15:37:08Z</time>
      </trkpt>
      <trkpt lat="47.85153" lon="7.13269">
        <ele>1085</ele>
        <time>2014-07-26T15:37:13Z</time>
      </trkpt>
      <trkpt lat="47.85156" lon="7.13274">
        <ele>1086</ele>
        <time>2014-07-26T15:37:22Z</time>
      </trkpt>
      <trkpt lat="47.85168" lon="7.13288">
        <ele>1089</ele>
        <time>2014-07-26T15:37:35Z</time>
      </trkpt>
      <trkpt lat="47.85176" lon="7.13298">
        <ele>1089</ele>
        <time>2014-07-26T15:37:42Z</time>
      </trkpt>
      <trkpt lat="47.85179" lon="7.13303">
        <ele>1089</ele>
        <time>2014-07-26T15:37:46Z</time>
      </trkpt>
      <trkpt lat="47.85185" lon="7.13315">
        <ele>1088</ele>
        <time>2014-07-26T15:37:54Z</time>
      </trkpt>
      <trkpt lat="47.85189" lon="7.13318">
        <ele>1088</ele>
        <time>2014-07-26T15:37:59Z</time>
      </trkpt>
      <trkpt lat="47.85197" lon="7.13318">
        <ele>1087</ele>
        <time>2014-07-26T15:38:08Z</time>
      </trkpt>
      <trkpt lat="47.85202" lon="7.13323">
        <ele>1086</ele>
        <time>2014-07-26T15:38:19Z</time>
      </trkpt>
      <trkpt lat="47.85211" lon="7.13331">
        <ele>1087</ele>
        <time>2014-07-26T15:38:28Z</time>
      </trkpt>
      <trkpt lat="47.85225" lon="7.1334">
        <ele>1086</ele>
        <time>2014-07-26T15:38:41Z</time>
      </trkpt>
      <trkpt lat="47.85229" lon="7.13344">
        <ele>1086</ele>
        <time>2014-07-26T15:38:45Z</time>
      </trkpt>
      <trkpt lat="47.85238" lon="7.13363">
        <ele>1088</ele>
        <time>2014-07-26T15:38:57Z</time>
      </trkpt>
      <trkpt lat="47.85246" lon="7.13375">
        <ele>1088</ele>
        <time>2014-07-26T15:39:04Z</time>
      </trkpt>
      <trkpt lat="47.85255" lon="7.13393">
        <ele>1086</ele>
        <time>2014-07-26T15:39:18Z</time>
      </trkpt>
      <trkpt lat="47.85259" lon="7.13407">
        <ele>1084</ele>
        <time>2014-07-26T15:39:34Z</time>
      </trkpt>
      <trkpt lat="47.85262" lon="7.13412">
        <ele>1083</ele>
        <time>2014-07-26T15:39:38Z</time>
      </trkpt>
      <trkpt lat="47.85274" lon="7.13427">
        <ele>1081</ele>
        <time>2014-07-26T15:39:50Z</time>
      </trkpt>
      <trkpt lat="47.85291" lon="7.13434">
        <ele>1074</ele>
        <time>2014-07-26T15:40:08Z</time>
      </trkpt>
      <trkpt lat="47.85297" lon="7.1345">
        <ele>1065</ele>
        <time>2014-07-26T15:40:24Z</time>
      </trkpt>
      <trkpt lat="47.85297" lon="7.13454">
        <ele>1064</ele>
        <time>2014-07-26T15:40:30Z</time>
      </trkpt>
      <trkpt lat="47.85304" lon="7.13475">
        <ele>1060</ele>
        <time>2014-07-26T15:40:44Z</time>
      </trkpt>
      <trkpt lat="47.85308" lon="7.13487">
        <ele>1059</ele>
        <time>2014-07-26T15:40:55Z</time>
      </trkpt>
      <trkpt lat="47.85311" lon="7.13492">
        <ele>1059</ele>
        <time>2014-07-26T15:41:00Z</time>
      </trkpt>
      <trkpt lat="47.85315" lon="7.13497">
        <ele>1058</ele>
        <time>2014-07-26T15:41:05Z</time>
      </trkpt>
      <trkpt lat="47.8532" lon="7.13494">
        <ele>1056</ele>
        <time>2014-07-26T15:41:12Z</time>
      </trkpt>
      <trkpt lat="47.85323" lon="7.13498">
        <ele>1054</ele>
        <time>2014-07-26T15:41:17Z</time>
      </trkpt>
      <trkpt lat="47.85325" lon="7.13505">
        <ele>1053</ele>
        <time>2014-07-26T15:41:21Z</time>
      </trkpt>
      <trkpt lat="47.85325" lon="7.13512">
        <ele>1052</ele>
        <time>2014-07-26T15:41:25Z</time>
      </trkpt>
      <trkpt lat="47.85326" lon="7.13519">
        <ele>1051</ele>
        <time>2014-07-26T15:41:31Z</time>
      </trkpt>
      <trkpt lat="47.8533" lon="7.13524">
        <ele>1050</ele>
        <time>2014-07-26T15:41:38Z</time>
      </trkpt>
      <trkpt lat="47.85334" lon="7.13537">
        <ele>1047</ele>
        <time>2014-07-26T15:41:49Z</time>
      </trkpt>
      <trkpt lat="47.85329" lon="7.13544">
        <ele>1047</ele>
        <time>2014-07-26T15:42:07Z</time>
      </trkpt>
      <trkpt lat="47.85322" lon="7.13554">
        <ele>1047</ele>
        <time>2014-07-26T15:42:16Z</time>
      </trkpt>
      <trkpt lat="47.85318" lon="7.13559">
        <ele>1045</ele>
        <time>2014-07-26T15:42:25Z</time>
      </trkpt>
      <trkpt lat="47.85316" lon="7.13574">
        <ele>1041</ele>
        <time>2014-07-26T15:42:40Z</time>
      </trkpt>
      <trkpt lat="47.85317" lon="7.1358">
        <ele>1040</ele>
        <time>2014-07-26T15:42:46Z</time>
      </trkpt>
      <trkpt lat="47.85322" lon="7.13584">
        <ele>1041</ele>
        <time>2014-07-26T15:42:51Z</time>
      </trkpt>
      <trkpt lat="47.85327" lon="7.13586">
        <ele>1042</ele>
        <time>2014-07-26T15:43:03Z</time>
      </trkpt>
      <trkpt lat="47.85332" lon="7.13584">
        <ele>1043</ele>
        <time>2014-07-26T15:43:10Z</time>
      </trkpt>
      <trkpt lat="47.85337" lon="7.1358">
        <ele>1043</ele>
        <time>2014-07-26T15:43:16Z</time>
      </trkpt>
      <trkpt lat="47.85341" lon="7.13577">
        <ele>1044</ele>
        <time>2014-07-26T15:43:20Z</time>
      </trkpt>
      <trkpt lat="47.85349" lon="7.13569">
        <ele>1045</ele>
        <time>2014-07-26T15:43:30Z</time>
      </trkpt>
      <trkpt lat="47.85367" lon="7.13556">
        <ele>1046</ele>
        <time>2014-07-26T15:43:45Z</time>
      </trkpt>
      <trkpt lat="47.85395" lon="7.13539">
        <ele>1042</ele>
        <time>2014-07-26T15:44:09Z</time>
      </trkpt>
      <trkpt lat="47.85399" lon="7.13536">
        <ele>1042</ele>
        <time>2014-07-26T15:44:12Z</time>
      </trkpt>
      <trkpt lat="47.85403" lon="7.13532">
        <ele>1042</ele>
        <time>2014-07-26T15:44:16Z</time>
      </trkpt>
      <trkpt lat="47.85408" lon="7.1353">
        <ele>1042</ele>
        <time>2014-07-26T15:44:20Z</time>
      </trkpt>
      <trkpt lat="47.85426" lon="7.13522">
        <ele>1037</ele>
        <time>2014-07-26T15:44:37Z</time>
      </trkpt>
      <trkpt lat="47.85432" lon="7.1352">
        <ele>1037</ele>
        <time>2014-07-26T15:44:41Z</time>
      </trkpt>
      <trkpt lat="47.85471" lon="7.13513">
        <ele>1031</ele>
        <time>2014-07-26T15:45:16Z</time>
      </trkpt>
      <trkpt lat="47.8548" lon="7.13518">
        <ele>1030</ele>
        <time>2014-07-26T15:45:22Z</time>
      </trkpt>
      <trkpt lat="47.85495" lon="7.13522">
        <ele>1029</ele>
        <time>2014-07-26T15:45:31Z</time>
      </trkpt>
      <trkpt lat="47.85509" lon="7.13533">
        <ele>1030</ele>
        <time>2014-07-26T15:45:42Z</time>
      </trkpt>
      <trkpt lat="47.85513" lon="7.13536">
        <ele>1029</ele>
        <time>2014-07-26T15:45:45Z</time>
      </trkpt>
      <trkpt lat="47.85519" lon="7.13541">
        <ele>1029</ele>
        <time>2014-07-26T15:45:49Z</time>
      </trkpt>
      <trkpt lat="47.85556" lon="7.13579">
        <ele>1023</ele>
        <time>2014-07-26T15:46:22Z</time>
      </trkpt>
      <trkpt lat="47.85582" lon="7.13601">
        <ele>1020</ele>
        <time>2014-07-26T15:46:42Z</time>
      </trkpt>
      <trkpt lat="47.85604" lon="7.13618">
        <ele>1016</ele>
        <time>2014-07-26T15:46:58Z</time>
      </trkpt>
      <trkpt lat="47.85614" lon="7.13627">
        <ele>1015</ele>
        <time>2014-07-26T15:47:06Z</time>
      </trkpt>
      <trkpt lat="47.85633" lon="7.13631">
        <ele>1013</ele>
        <time>2014-07-26T15:47:18Z</time>
      </trkpt>
      <trkpt lat="47.85637" lon="7.13636">
        <ele>1013</ele>
        <time>2014-07-26T15:47:22Z</time>
      </trkpt>
      <trkpt lat="47.85657" lon="7.13684">
        <ele>1010</ele>
        <time>2014-07-26T15:47:49Z</time>
      </trkpt>
      <trkpt lat="47.85682" lon="7.13726">
        <ele>1001</ele>
        <time>2014-07-26T15:48:21Z</time>
      </trkpt>
      <trkpt lat="47.85697" lon="7.13756">
        <ele>997</ele>
        <time>2014-07-26T15:48:43Z</time>
      </trkpt>
      <trkpt lat="47.85701" lon="7.13769">
        <ele>998</ele>
        <time>2014-07-26T15:48:53Z</time>
      </trkpt>
      <trkpt lat="47.85706" lon="7.13782">
        <ele>997</ele>
        <time>2014-07-26T15:49:07Z</time>
      </trkpt>
      <trkpt lat="47.85725" lon="7.13813">
        <ele>998</ele>
        <time>2014-07-26T15:49:32Z</time>
      </trkpt>
      <trkpt lat="47.85753" lon="7.13854">
        <ele>1003</ele>
        <time>2014-07-26T15:50:01Z</time>
      </trkpt>
      <trkpt lat="47.8576" lon="7.13865">
        <ele>1003</ele>
        <time>2014-07-26T15:50:09Z</time>
      </trkpt>
      <trkpt lat="47.85752" lon="7.13872">
        <ele>1004</ele>
        <time>2014-07-26T15:50:22Z</time>
      </trkpt>
      <trkpt lat="47.85737" lon="7.1392">
        <ele>1000</ele>
        <time>2014-07-26T15:50:54Z</time>
      </trkpt>
      <trkpt lat="47.85736" lon="7.13927">
        <ele>999</ele>
        <time>2014-07-26T15:50:58Z</time>
      </trkpt>
      <trkpt lat="47.85739" lon="7.13943">
        <ele>997</ele>
        <time>2014-07-26T15:51:04Z</time>
      </trkpt>
      <trkpt lat="47.8574" lon="7.13951">
        <ele>997</ele>
        <time>2014-07-26T15:51:07Z</time>
      </trkpt>
      <trkpt lat="47.85739" lon="7.13958">
        <ele>997</ele>
        <time>2014-07-26T15:51:10Z</time>
      </trkpt>
      <trkpt lat="47.85741" lon="7.13996">
        <ele>996</ele>
        <time>2014-07-26T15:51:27Z</time>
      </trkpt>
      <trkpt lat="47.85739" lon="7.14004">
        <ele>995</ele>
        <time>2014-07-26T15:51:31Z</time>
      </trkpt>
      <trkpt lat="47.85734" lon="7.14007">
        <ele>994</ele>
        <time>2014-07-26T15:51:35Z</time>
      </trkpt>
      <trkpt lat="47.85729" lon="7.14019">
        <ele>991</ele>
        <time>2014-07-26T15:51:44Z</time>
      </trkpt>
      <trkpt lat="47.85727" lon="7.14033">
        <ele>988</ele>
        <time>2014-07-26T15:51:51Z</time>
      </trkpt>
      <trkpt lat="47.85731" lon="7.14048">
        <ele>987</ele>
        <time>2014-07-26T15:51:56Z</time>
      </trkpt>
      <trkpt lat="47.85729" lon="7.14062">
        <ele>986</ele>
        <time>2014-07-26T15:52:02Z</time>
      </trkpt>
      <trkpt lat="47.85717" lon="7.14086">
        <ele>982</ele>
        <time>2014-07-26T15:52:17Z</time>
      </trkpt>
      <trkpt lat="47.85722" lon="7.14098">
        <ele>979</ele>
        <time>2014-07-26T15:52:26Z</time>
      </trkpt>
      <trkpt lat="47.85728" lon="7.14111">
        <ele>979</ele>
        <time>2014-07-26T15:52:31Z</time>
      </trkpt>
      <trkpt lat="47.85722" lon="7.14123">
        <ele>978</ele>
        <time>2014-07-26T15:53:08Z</time>
      </trkpt>
      <trkpt lat="47.85713" lon="7.14128">
        <ele>977</ele>
        <time>2014-07-26T15:53:18Z</time>
      </trkpt>
      <trkpt lat="47.85705" lon="7.14138">
        <ele>976</ele>
        <time>2014-07-26T15:53:23Z</time>
      </trkpt>
      <trkpt lat="47.85697" lon="7.1418">
        <ele>971</ele>
        <time>2014-07-26T15:53:37Z</time>
      </trkpt>
      <trkpt lat="47.85699" lon="7.14196">
        <ele>970</ele>
        <time>2014-07-26T15:53:42Z</time>
      </trkpt>
      <trkpt lat="47.85701" lon="7.1421">
        <ele>967</ele>
        <time>2014-07-26T15:53:48Z</time>
      </trkpt>
      <trkpt lat="47.85699" lon="7.14224">
        <ele>966</ele>
        <time>2014-07-26T15:53:54Z</time>
      </trkpt>
      <trkpt lat="47.85697" lon="7.14251">
        <ele>966</ele>
        <time>2014-07-26T15:54:05Z</time>
      </trkpt>
      <trkpt lat="47.85707" lon="7.14291">
        <ele>963</ele>
        <time>2014-07-26T15:54:24Z</time>
      </trkpt>
      <trkpt lat="47.85709" lon="7.14306">
        <ele>963</ele>
        <time>2014-07-26T15:54:31Z</time>
      </trkpt>
      <trkpt lat="47.85706" lon="7.14321">
        <ele>964</ele>
        <time>2014-07-26T15:54:38Z</time>
      </trkpt>
      <trkpt lat="47.85712" lon="7.14347">
        <ele>962</ele>
        <time>2014-07-26T15:54:52Z</time>
      </trkpt>
      <trkpt lat="47.85708" lon="7.14361">
        <ele>960</ele>
        <time>2014-07-26T15:55:00Z</time>
      </trkpt>
      <trkpt lat="47.8571" lon="7.14405">
        <ele>953</ele>
        <time>2014-07-26T15:55:20Z</time>
      </trkpt>
      <trkpt lat="47.85713" lon="7.14418">
        <ele>952</ele>
        <time>2014-07-26T15:55:26Z</time>
      </trkpt>
      <trkpt lat="47.85717" lon="7.14447">
        <ele>950</ele>
        <time>2014-07-26T15:55:40Z</time>
      </trkpt>
      <trkpt lat="47.85715" lon="7.14491">
        <ele>943</ele>
        <time>2014-07-26T15:56:03Z</time>
      </trkpt>
      <trkpt lat="47.85716" lon="7.14507">
        <ele>942</ele>
        <time>2014-07-26T15:56:09Z</time>
      </trkpt>
      <trkpt lat="47.85713" lon="7.1452">
        <ele>944</ele>
        <time>2014-07-26T15:56:15Z</time>
      </trkpt>
      <trkpt lat="47.85717" lon="7.14533">
        <ele>943</ele>
        <time>2014-07-26T15:56:22Z</time>
      </trkpt>
      <trkpt lat="47.85722" lon="7.14546">
        <ele>942</ele>
        <time>2014-07-26T15:56:29Z</time>
      </trkpt>
      <trkpt lat="47.85726" lon="7.14561">
        <ele>941</ele>
        <time>2014-07-26T15:56:36Z</time>
      </trkpt>
      <trkpt lat="47.85758" lon="7.14637">
        <ele>932</ele>
        <time>2014-07-26T15:57:10Z</time>
      </trkpt>
      <trkpt lat="47.85775" lon="7.1467">
        <ele>927</ele>
        <time>2014-07-26T15:57:31Z</time>
      </trkpt>
      <trkpt lat="47.85769" lon="7.14679">
        <ele>925</ele>
        <time>2014-07-26T15:57:48Z</time>
      </trkpt>
      <trkpt lat="47.85725" lon="7.14701">
        <ele>917</ele>
        <time>2014-07-26T15:58:21Z</time>
      </trkpt>
      <trkpt lat="47.85725" lon="7.14716">
        <ele>917</ele>
        <time>2014-07-26T15:58:28Z</time>
      </trkpt>
      <trkpt lat="47.85735" lon="7.1474">
        <ele>913</ele>
        <time>2014-07-26T15:58:42Z</time>
      </trkpt>
      <trkpt lat="47.85746" lon="7.14781">
        <ele>911</ele>
        <time>2014-07-26T15:59:01Z</time>
      </trkpt>
      <trkpt lat="47.85761" lon="7.148">
        <ele>907</ele>
        <time>2014-07-26T15:59:17Z</time>
      </trkpt>
      <trkpt lat="47.85764" lon="7.14806">
        <ele>907</ele>
        <time>2014-07-26T15:59:21Z</time>
      </trkpt>
      <trkpt lat="47.85769" lon="7.14826">
        <ele>908</ele>
        <time>2014-07-26T15:59:32Z</time>
      </trkpt>
      <trkpt lat="47.85771" lon="7.14833">
        <ele>908</ele>
        <time>2014-07-26T15:59:37Z</time>
      </trkpt>
      <trkpt lat="47.85769" lon="7.14835">
        <ele>904</ele>
        <time>2014-07-26T16:00:06Z</time>
      </trkpt>
      <trkpt lat="47.85767" lon="7.14837">
        <ele>903</ele>
        <time>2014-07-26T16:00:12Z</time>
      </trkpt>
      <trkpt lat="47.8577" lon="7.14843">
        <ele>903</ele>
        <time>2014-07-26T16:00:19Z</time>
      </trkpt>
      <trkpt lat="47.85771" lon="7.14842">
        <ele>900</ele>
        <time>2014-07-26T16:00:47Z</time>
      </trkpt>
      <trkpt lat="47.85769" lon="7.14851">
        <ele>900</ele>
        <time>2014-07-26T16:01:11Z</time>
      </trkpt>
      <trkpt lat="47.85771" lon="7.14859">
        <ele>900</ele>
        <time>2014-07-26T16:01:17Z</time>
      </trkpt>
      <trkpt lat="47.85776" lon="7.14874">
        <ele>899</ele>
        <time>2014-07-26T16:01:29Z</time>
      </trkpt>
      <trkpt lat="47.85779" lon="7.14881">
        <ele>899</ele>
        <time>2014-07-26T16:01:32Z</time>
      </trkpt>
      <trkpt lat="47.85782" lon="7.14887">
        <ele>899</ele>
        <time>2014-07-26T16:01:36Z</time>
      </trkpt>
      <trkpt lat="47.85783" lon="7.14894">
        <ele>901</ele>
        <time>2014-07-26T16:01:43Z</time>
      </trkpt>
      <trkpt lat="47.85786" lon="7.14901">
        <ele>901</ele>
        <time>2014-07-26T16:01:47Z</time>
      </trkpt>
      <trkpt lat="47.85801" lon="7.14925">
        <ele>901</ele>
        <time>2014-07-26T16:02:02Z</time>
      </trkpt>
      <trkpt lat="47.85802" lon="7.14932">
        <ele>901</ele>
        <time>2014-07-26T16:02:06Z</time>
      </trkpt>
      <trkpt lat="47.85808" lon="7.14952">
        <ele>899</ele>
        <time>2014-07-26T16:02:15Z</time>
      </trkpt>
      <trkpt lat="47.85812" lon="7.14966">
        <ele>899</ele>
        <time>2014-07-26T16:02:22Z</time>
      </trkpt>
      <trkpt lat="47.85815" lon="7.1498">
        <ele>901</ele>
        <time>2014-07-26T16:02:30Z</time>
      </trkpt>
      <trkpt lat="47.85819" lon="7.14993">
        <ele>901</ele>
        <time>2014-07-26T16:02:38Z</time>
      </trkpt>
      <trkpt lat="47.85824" lon="7.15007">
        <ele>900</ele>
        <time>2014-07-26T16:02:46Z</time>
      </trkpt>
      <trkpt lat="47.85828" lon="7.15019">
        <ele>900</ele>
        <time>2014-07-26T16:02:52Z</time>
      </trkpt>
      <trkpt lat="47.85828" lon="7.15032">
        <ele>899</ele>
        <time>2014-07-26T16:02:59Z</time>
      </trkpt>
      <trkpt lat="47.85825" lon="7.15046">
        <ele>898</ele>
        <time>2014-07-26T16:03:09Z</time>
      </trkpt>
      <trkpt lat="47.85823" lon="7.1506">
        <ele>895</ele>
        <time>2014-07-26T16:03:19Z</time>
      </trkpt>
      <trkpt lat="47.85826" lon="7.15073">
        <ele>894</ele>
        <time>2014-07-26T16:03:27Z</time>
      </trkpt>
      <trkpt lat="47.85829" lon="7.15086">
        <ele>894</ele>
        <time>2014-07-26T16:03:32Z</time>
      </trkpt>
      <trkpt lat="47.8583" lon="7.15098">
        <ele>894</ele>
        <time>2014-07-26T16:03:39Z</time>
      </trkpt>
      <trkpt lat="47.85832" lon="7.15113">
        <ele>895</ele>
        <time>2014-07-26T16:03:47Z</time>
      </trkpt>
      <trkpt lat="47.85836" lon="7.1512">
        <ele>894</ele>
        <time>2014-07-26T16:03:51Z</time>
      </trkpt>
      <trkpt lat="47.85838" lon="7.15136">
        <ele>894</ele>
        <time>2014-07-26T16:03:59Z</time>
      </trkpt>
      <trkpt lat="47.85834" lon="7.15141">
        <ele>893</ele>
        <time>2014-07-26T16:04:04Z</time>
      </trkpt>
      <trkpt lat="47.85813" lon="7.15153">
        <ele>886</ele>
        <time>2014-07-26T16:04:20Z</time>
      </trkpt>
      <trkpt lat="47.85811" lon="7.1516">
        <ele>884</ele>
        <time>2014-07-26T16:04:25Z</time>
      </trkpt>
      <trkpt lat="47.85808" lon="7.15167">
        <ele>883</ele>
        <time>2014-07-26T16:04:29Z</time>
      </trkpt>
      <trkpt lat="47.85801" lon="7.15174">
        <ele>883</ele>
        <time>2014-07-26T16:04:35Z</time>
      </trkpt>
      <trkpt lat="47.85793" lon="7.15175">
        <ele>882</ele>
        <time>2014-07-26T16:04:40Z</time>
      </trkpt>
      <trkpt lat="47.85789" lon="7.15181">
        <ele>880</ele>
        <time>2014-07-26T16:04:45Z</time>
      </trkpt>
      <trkpt lat="47.85782" lon="7.15202">
        <ele>875</ele>
        <time>2014-07-26T16:04:54Z</time>
      </trkpt>
      <trkpt lat="47.85781" lon="7.15208">
        <ele>875</ele>
        <time>2014-07-26T16:04:57Z</time>
      </trkpt>
      <trkpt lat="47.85776" lon="7.15214">
        <ele>875</ele>
        <time>2014-07-26T16:05:01Z</time>
      </trkpt>
      <trkpt lat="47.85774" lon="7.1522">
        <ele>875</ele>
        <time>2014-07-26T16:05:05Z</time>
      </trkpt>
      <trkpt lat="47.85758" lon="7.15291">
        <ele>864</ele>
        <time>2014-07-26T16:05:36Z</time>
      </trkpt>
      <trkpt lat="47.85747" lon="7.1533">
        <ele>858</ele>
        <time>2014-07-26T16:05:54Z</time>
      </trkpt>
      <trkpt lat="47.85741" lon="7.15339">
        <ele>858</ele>
        <time>2014-07-26T16:06:02Z</time>
      </trkpt>
      <trkpt lat="47.85732" lon="7.15336">
        <ele>858</ele>
        <time>2014-07-26T16:06:06Z</time>
      </trkpt>
      <trkpt lat="47.85723" lon="7.15345">
        <ele>859</ele>
        <time>2014-07-26T16:06:15Z</time>
      </trkpt>
      <trkpt lat="47.85724" lon="7.15357">
        <ele>858</ele>
        <time>2014-07-26T16:06:17Z</time>
      </trkpt>
      <trkpt lat="47.85719" lon="7.15384">
        <ele>854</ele>
        <time>2014-07-26T16:06:30Z</time>
      </trkpt>
      <trkpt lat="47.85721" lon="7.15391">
        <ele>852</ele>
        <time>2014-07-26T16:06:33Z</time>
      </trkpt>
      <trkpt lat="47.85719" lon="7.15404">
        <ele>851</ele>
        <time>2014-07-26T16:06:41Z</time>
      </trkpt>
      <trkpt lat="47.85716" lon="7.15411">
        <ele>851</ele>
        <time>2014-07-26T16:06:46Z</time>
      </trkpt>
      <trkpt lat="47.85706" lon="7.15418">
        <ele>850</ele>
        <time>2014-07-26T16:06:54Z</time>
      </trkpt>
      <trkpt lat="47.85706" lon="7.15424">
        <ele>850</ele>
        <time>2014-07-26T16:06:59Z</time>
      </trkpt>
      <trkpt lat="47.85706" lon="7.15431">
        <ele>850</ele>
        <time>2014-07-26T16:07:03Z</time>
      </trkpt>
      <trkpt lat="47.857" lon="7.15433">
        <ele>850</ele>
        <time>2014-07-26T16:07:07Z</time>
      </trkpt>
      <trkpt lat="47.85694" lon="7.15434">
        <ele>850</ele>
        <time>2014-07-26T16:07:10Z</time>
      </trkpt>
      <trkpt lat="47.8569" lon="7.1544">
        <ele>850</ele>
        <time>2014-07-26T16:07:14Z</time>
      </trkpt>
      <trkpt lat="47.85692" lon="7.15455">
        <ele>849</ele>
        <time>2014-07-26T16:07:22Z</time>
      </trkpt>
      <trkpt lat="47.8569" lon="7.15461">
        <ele>849</ele>
        <time>2014-07-26T16:07:28Z</time>
      </trkpt>
      <trkpt lat="47.85687" lon="7.15466">
        <ele>848</ele>
        <time>2014-07-26T16:07:32Z</time>
      </trkpt>
      <trkpt lat="47.85682" lon="7.15471">
        <ele>849</ele>
        <time>2014-07-26T16:07:37Z</time>
      </trkpt>
      <trkpt lat="47.85668" lon="7.15497">
        <ele>847</ele>
        <time>2014-07-26T16:07:57Z</time>
      </trkpt>
      <trkpt lat="47.85648" lon="7.15552">
        <ele>838</ele>
        <time>2014-07-26T16:08:29Z</time>
      </trkpt>
      <trkpt lat="47.85644" lon="7.15567">
        <ele>838</ele>
        <time>2014-07-26T16:08:37Z</time>
      </trkpt>
      <trkpt lat="47.85636" lon="7.15579">
        <ele>835</ele>
        <time>2014-07-26T16:08:44Z</time>
      </trkpt>
      <trkpt lat="47.85634" lon="7.15587">
        <ele>834</ele>
        <time>2014-07-26T16:08:47Z</time>
      </trkpt>
      <trkpt lat="47.85629" lon="7.1559">
        <ele>833</ele>
        <time>2014-07-26T16:08:50Z</time>
      </trkpt>
      <trkpt lat="47.85607" lon="7.15611">
        <ele>830</ele>
        <time>2014-07-26T16:09:08Z</time>
      </trkpt>
      <trkpt lat="47.85603" lon="7.15625">
        <ele>827</ele>
        <time>2014-07-26T16:09:16Z</time>
      </trkpt>
      <trkpt lat="47.85604" lon="7.15639">
        <ele>822</ele>
        <time>2014-07-26T16:09:25Z</time>
      </trkpt>
      <trkpt lat="47.856" lon="7.15651">
        <ele>821</ele>
        <time>2014-07-26T16:09:37Z</time>
      </trkpt>
      <trkpt lat="47.85577" lon="7.15679">
        <ele>810</ele>
        <time>2014-07-26T16:09:56Z</time>
      </trkpt>
      <trkpt lat="47.85569" lon="7.15682">
        <ele>809</ele>
        <time>2014-07-26T16:10:00Z</time>
      </trkpt>
      <trkpt lat="47.85538" lon="7.15717">
        <ele>800</ele>
        <time>2014-07-26T16:10:37Z</time>
      </trkpt>
      <trkpt lat="47.85531" lon="7.15726">
        <ele>798</ele>
        <time>2014-07-26T16:10:46Z</time>
      </trkpt>
      <trkpt lat="47.85507" lon="7.15748">
        <ele>795</ele>
        <time>2014-07-26T16:11:05Z</time>
      </trkpt>
      <trkpt lat="47.85499" lon="7.15757">
        <ele>792</ele>
        <time>2014-07-26T16:11:12Z</time>
      </trkpt>
      <trkpt lat="47.85491" lon="7.15781">
        <ele>787</ele>
        <time>2014-07-26T16:11:22Z</time>
      </trkpt>
      <trkpt lat="47.85492" lon="7.15795">
        <ele>785</ele>
        <time>2014-07-26T16:11:28Z</time>
      </trkpt>
      <trkpt lat="47.85483" lon="7.15802">
        <ele>781</ele>
        <time>2014-07-26T16:11:34Z</time>
      </trkpt>
      <trkpt lat="47.85475" lon="7.1581">
        <ele>779</ele>
        <time>2014-07-26T16:11:41Z</time>
      </trkpt>
      <trkpt lat="47.85462" lon="7.15847">
        <ele>770</ele>
        <time>2014-07-26T16:12:04Z</time>
      </trkpt>
      <trkpt lat="47.85458" lon="7.1586">
        <ele>771</ele>
        <time>2014-07-26T16:12:16Z</time>
      </trkpt>
      <trkpt lat="47.85458" lon="7.1587">
        <ele>765</ele>
        <time>2014-07-26T16:12:39Z</time>
      </trkpt>
      <trkpt lat="47.85462" lon="7.15875">
        <ele>764</ele>
        <time>2014-07-26T16:13:03Z</time>
      </trkpt>
      <trkpt lat="47.85456" lon="7.15886">
        <ele>763</ele>
        <time>2014-07-26T16:13:27Z</time>
      </trkpt>
      <trkpt lat="47.85443" lon="7.15893">
        <ele>761</ele>
        <time>2014-07-26T16:13:36Z</time>
      </trkpt>
      <trkpt lat="47.85435" lon="7.15907">
        <ele>758</ele>
        <time>2014-07-26T16:13:54Z</time>
      </trkpt>
      <trkpt lat="47.85426" lon="7.15912">
        <ele>758</ele>
        <time>2014-07-26T16:13:59Z</time>
      </trkpt>
      <trkpt lat="47.85417" lon="7.15918">
        <ele>756</ele>
        <time>2014-07-26T16:14:07Z</time>
      </trkpt>
      <trkpt lat="47.85411" lon="7.15918">
        <ele>756</ele>
        <time>2014-07-26T16:14:10Z</time>
      </trkpt>
      <trkpt lat="47.85399" lon="7.15911">
        <ele>755</ele>
        <time>2014-07-26T16:14:14Z</time>
      </trkpt>
      <trkpt lat="47.85392" lon="7.15925">
        <ele>751</ele>
        <time>2014-07-26T16:14:24Z</time>
      </trkpt>
      <trkpt lat="47.85388" lon="7.15937">
        <ele>748</ele>
        <time>2014-07-26T16:14:31Z</time>
      </trkpt>
      <trkpt lat="47.85372" lon="7.1595">
        <ele>745</ele>
        <time>2014-07-26T16:14:46Z</time>
      </trkpt>
      <trkpt lat="47.85363" lon="7.15953">
        <ele>744</ele>
        <time>2014-07-26T16:14:55Z</time>
      </trkpt>
      <trkpt lat="47.85353" lon="7.15954">
        <ele>746</ele>
        <time>2014-07-26T16:15:07Z</time>
      </trkpt>
      <trkpt lat="47.85347" lon="7.15962">
        <ele>742</ele>
        <time>2014-07-26T16:15:29Z</time>
      </trkpt>
      <trkpt lat="47.85347" lon="7.15975">
        <ele>738</ele>
        <time>2014-07-26T16:16:07Z</time>
      </trkpt>
      <trkpt lat="47.85345" lon="7.15984">
        <ele>733</ele>
        <time>2014-07-26T16:16:48Z</time>
      </trkpt>
      <trkpt lat="47.85336" lon="7.15982">
        <ele>733</ele>
        <time>2014-07-26T16:17:02Z</time>
      </trkpt>
      <trkpt lat="47.85316" lon="7.15989">
        <ele>731</ele>
        <time>2014-07-26T16:17:23Z</time>
      </trkpt>
      <trkpt lat="47.85288" lon="7.16024">
        <ele>726</ele>
        <time>2014-07-26T16:18:06Z</time>
      </trkpt>
      <trkpt lat="47.85279" lon="7.16025">
        <ele>724</ele>
        <time>2014-07-26T16:18:13Z</time>
      </trkpt>
      <trkpt lat="47.85271" lon="7.16032">
        <ele>724</ele>
        <time>2014-07-26T16:18:18Z</time>
      </trkpt>
      <trkpt lat="47.85261" lon="7.16057">
        <ele>720</ele>
        <time>2014-07-26T16:18:32Z</time>
      </trkpt>
      <trkpt lat="47.85253" lon="7.16063">
        <ele>717</ele>
        <time>2014-07-26T16:18:39Z</time>
      </trkpt>
      <trkpt lat="47.85219" lon="7.16114">
        <ele>705</ele>
        <time>2014-07-26T16:19:15Z</time>
      </trkpt>
      <trkpt lat="47.85218" lon="7.16129">
        <ele>703</ele>
        <time>2014-07-26T16:19:24Z</time>
      </trkpt>
      <trkpt lat="47.85213" lon="7.16141">
        <ele>700</ele>
        <time>2014-07-26T16:19:34Z</time>
      </trkpt>
      <trkpt lat="47.85192" lon="7.16169">
        <ele>691</ele>
        <time>2014-07-26T16:20:06Z</time>
      </trkpt>
      <trkpt lat="47.85183" lon="7.16175">
        <ele>689</ele>
        <time>2014-07-26T16:20:15Z</time>
      </trkpt>
      <trkpt lat="47.85176" lon="7.16185">
        <ele>687</ele>
        <time>2014-07-26T16:20:24Z</time>
      </trkpt>
      <trkpt lat="47.85175" lon="7.16198">
        <ele>684</ele>
        <time>2014-07-26T16:20:41Z</time>
      </trkpt>
      <trkpt lat="47.85167" lon="7.16205">
        <ele>677</ele>
        <time>2014-07-26T16:20:54Z</time>
      </trkpt>
      <trkpt lat="47.85158" lon="7.16204">
        <ele>676</ele>
        <time>2014-07-26T16:21:02Z</time>
      </trkpt>
      <trkpt lat="47.85148" lon="7.16205">
        <ele>676</ele>
        <time>2014-07-26T16:21:08Z</time>
      </trkpt>
      <trkpt lat="47.85141" lon="7.16214">
        <ele>676</ele>
        <time>2014-07-26T16:21:21Z</time>
      </trkpt>
      <trkpt lat="47.85131" lon="7.16222">
        <ele>675</ele>
        <time>2014-07-26T16:21:33Z</time>
      </trkpt>
      <trkpt lat="47.85121" lon="7.16224">
        <ele>673</ele>
        <time>2014-07-26T16:21:42Z</time>
      </trkpt>
      <trkpt lat="47.85115" lon="7.16235">
        <ele>670</ele>
        <time>2014-07-26T16:21:49Z</time>
      </trkpt>
      <trkpt lat="47.8511" lon="7.16246">
        <ele>669</ele>
        <time>2014-07-26T16:21:57Z</time>
      </trkpt>
      <trkpt lat="47.85094" lon="7.16262">
        <ele>664</ele>
        <time>2014-07-26T16:22:15Z</time>
      </trkpt>
      <trkpt lat="47.85082" lon="7.16284">
        <ele>662</ele>
        <time>2014-07-26T16:22:29Z</time>
      </trkpt>
      <trkpt lat="47.85073" lon="7.16288">
        <ele>661</ele>
        <time>2014-07-26T16:22:35Z</time>
      </trkpt>
      <trkpt lat="47.85037" lon="7.1631">
        <ele>650</ele>
        <time>2014-07-26T16:23:14Z</time>
      </trkpt>
      <trkpt lat="47.85005" lon="7.16341">
        <ele>643</ele>
        <time>2014-07-26T16:23:50Z</time>
      </trkpt>
      <trkpt lat="47.84995" lon="7.16343">
        <ele>640</ele>
        <time>2014-07-26T16:24:03Z</time>
      </trkpt>
      <trkpt lat="47.84967" lon="7.16357">
        <ele>639</ele>
        <time>2014-07-26T16:24:28Z</time>
      </trkpt>
      <trkpt lat="47.84954" lon="7.16377">
        <ele>639</ele>
        <time>2014-07-26T16:24:39Z</time>
      </trkpt>
      <trkpt lat="47.84948" lon="7.16387">
        <ele>638</ele>
        <time>2014-07-26T16:24:46Z</time>
      </trkpt>
      <trkpt lat="47.84939" lon="7.16393">
        <ele>636</ele>
        <time>2014-07-26T16:24:52Z</time>
      </trkpt>
      <trkpt lat="47.8491" lon="7.16451">
        <ele>624</ele>
        <time>2014-07-26T16:25:25Z</time>
      </trkpt>
      <trkpt lat="47.84905" lon="7.16463">
        <ele>623</ele>
        <time>2014-07-26T16:25:31Z</time>
      </trkpt>
      <trkpt lat="47.84888" lon="7.16529">
        <ele>608</ele>
        <time>2014-07-26T16:26:04Z</time>
      </trkpt>
      <trkpt lat="47.84882" lon="7.16541">
        <ele>606</ele>
        <time>2014-07-26T16:26:11Z</time>
      </trkpt>
      <trkpt lat="47.84874" lon="7.16548">
        <ele>603</ele>
        <time>2014-07-26T16:26:19Z</time>
      </trkpt>
      <trkpt lat="47.84862" lon="7.1657">
        <ele>599</ele>
        <time>2014-07-26T16:26:46Z</time>
      </trkpt>
      <trkpt lat="47.84852" lon="7.16568">
        <ele>598</ele>
        <time>2014-07-26T16:26:53Z</time>
      </trkpt>
      <trkpt lat="47.84836" lon="7.16581">
        <ele>595</ele>
        <time>2014-07-26T16:27:07Z</time>
      </trkpt>
      <trkpt lat="47.8482" lon="7.16616">
        <ele>591</ele>
        <time>2014-07-26T16:27:27Z</time>
      </trkpt>
      <trkpt lat="47.84817" lon="7.16659">
        <ele>588</ele>
        <time>2014-07-26T16:27:47Z</time>
      </trkpt>
      <trkpt lat="47.84808" lon="7.16697">
        <ele>581</ele>
        <time>2014-07-26T16:28:20Z</time>
      </trkpt>
      <trkpt lat="47.84801" lon="7.16723">
        <ele>581</ele>
        <time>2014-07-26T16:28:37Z</time>
      </trkpt>
      <trkpt lat="47.84792" lon="7.16724">
        <ele>580</ele>
        <time>2014-07-26T16:28:45Z</time>
      </trkpt>
      <trkpt lat="47.8477" lon="7.16751">
        <ele>575</ele>
        <time>2014-07-26T16:29:12Z</time>
      </trkpt>
      <trkpt lat="47.84765" lon="7.16763">
        <ele>573</ele>
        <time>2014-07-26T16:29:22Z</time>
      </trkpt>
      <trkpt lat="47.84749" lon="7.16775">
        <ele>567</ele>
        <time>2014-07-26T16:29:46Z</time>
      </trkpt>
      <trkpt lat="47.8474" lon="7.16777">
        <ele>565</ele>
        <time>2014-07-26T16:29:58Z</time>
      </trkpt>
      <trkpt lat="47.84732" lon="7.16786">
        <ele>566</ele>
        <time>2014-07-26T16:30:09Z</time>
      </trkpt>
      <trkpt lat="47.84724" lon="7.16794">
        <ele>565</ele>
        <time>2014-07-26T16:30:21Z</time>
      </trkpt>
      <trkpt lat="47.84715" lon="7.16795">
        <ele>563</ele>
        <time>2014-07-26T16:30:28Z</time>
      </trkpt>
      <trkpt lat="47.84687" lon="7.16818">
        <ele>554</ele>
        <time>2014-07-26T16:30:58Z</time>
      </trkpt>
      <trkpt lat="47.84686" lon="7.16824">
        <ele>552</ele>
        <time>2014-07-26T16:31:04Z</time>
      </trkpt>
      <trkpt lat="47.84684" lon="7.16832">
        <ele>552</ele>
        <time>2014-07-26T16:31:10Z</time>
      </trkpt>
      <trkpt lat="47.84674" lon="7.16836">
        <ele>550</ele>
        <time>2014-07-26T16:31:20Z</time>
      </trkpt>
      <trkpt lat="47.84673" lon="7.16845">
        <ele>548</ele>
        <time>2014-07-26T16:31:25Z</time>
      </trkpt>
      <trkpt lat="47.84674" lon="7.16861">
        <ele>546</ele>
        <time>2014-07-26T16:31:35Z</time>
      </trkpt>
      <trkpt lat="47.84669" lon="7.16859">
        <ele>545</ele>
        <time>2014-07-26T16:31:49Z</time>
      </trkpt>
      <trkpt lat="47.8467" lon="7.16856">
        <ele>546</ele>
        <time>2014-07-26T16:32:33Z</time>
      </trkpt>
      <trkpt lat="47.84673" lon="7.16864">
        <ele>547</ele>
        <time>2014-07-26T16:32:44Z</time>
      </trkpt>
      <trkpt lat="47.84675" lon="7.16871">
        <ele>547</ele>
        <time>2014-07-26T16:32:49Z</time>
      </trkpt>
      <trkpt lat="47.84678" lon="7.16878">
        <ele>548</ele>
        <time>2014-07-26T16:32:54Z</time>
      </trkpt>
      <trkpt lat="47.84681" lon="7.16892">
        <ele>546</ele>
        <time>2014-07-26T16:33:07Z</time>
      </trkpt>
      <trkpt lat="47.84683" lon="7.16898">
        <ele>546</ele>
        <time>2014-07-26T16:33:11Z</time>
      </trkpt>
      <trkpt lat="47.84685" lon="7.16905">
        <ele>546</ele>
        <time>2014-07-26T16:33:15Z</time>
      </trkpt>
      <trkpt lat="47.84692" lon="7.16925">
        <ele>545</ele>
        <time>2014-07-26T16:33:27Z</time>
      </trkpt>
      <trkpt lat="47.84692" lon="7.16948">
        <ele>542</ele>
        <time>2014-07-26T16:33:41Z</time>
      </trkpt>
      <trkpt lat="47.84683" lon="7.16972">
        <ele>539</ele>
        <time>2014-07-26T16:34:01Z</time>
      </trkpt>
      <trkpt lat="47.84674" lon="7.16973">
        <ele>539</ele>
        <time>2014-07-26T16:34:09Z</time>
      </trkpt>
      <trkpt lat="47.84665" lon="7.1698">
        <ele>539</ele>
        <time>2014-07-26T16:34:16Z</time>
      </trkpt>
      <trkpt lat="47.84664" lon="7.16995">
        <ele>540</ele>
        <time>2014-07-26T16:34:25Z</time>
      </trkpt>
      <trkpt lat="47.84669" lon="7.17007">
        <ele>541</ele>
        <time>2014-07-26T16:34:32Z</time>
      </trkpt>
      <trkpt lat="47.84668" lon="7.17021">
        <ele>542</ele>
        <time>2014-07-26T16:34:42Z</time>
      </trkpt>
      <trkpt lat="47.8467" lon="7.17034">
        <ele>542</ele>
        <time>2014-07-26T16:34:49Z</time>
      </trkpt>
      <trkpt lat="47.84663" lon="7.17044">
        <ele>544</ele>
        <time>2014-07-26T16:35:04Z</time>
      </trkpt>
      <trkpt lat="47.84661" lon="7.17046">
        <ele>549</ele>
        <time>2014-07-26T16:35:31Z</time>
      </trkpt>
      <trkpt lat="47.84647" lon="7.17029">
        <ele>551</ele>
        <time>2014-07-26T16:35:55Z</time>
      </trkpt>
      <trkpt lat="47.84641" lon="7.17016">
        <ele>554</ele>
        <time>2014-07-26T16:36:04Z</time>
      </trkpt>
      <trkpt lat="47.84639" lon="7.1701">
        <ele>554</ele>
        <time>2014-07-26T16:36:10Z</time>
      </trkpt>
      <trkpt lat="47.84634" lon="7.17008">
        <ele>553</ele>
        <time>2014-07-26T16:36:15Z</time>
      </trkpt>
      <trkpt lat="47.84627" lon="7.17">
        <ele>554</ele>
        <time>2014-07-26T16:36:29Z</time>
      </trkpt>
      <trkpt lat="47.8461" lon="7.16988">
        <ele>555</ele>
        <time>2014-07-26T16:36:41Z</time>
      </trkpt>
      <trkpt lat="47.84601" lon="7.1699">
        <ele>555</ele>
        <time>2014-07-26T16:36:51Z</time>
      </trkpt>
      <trkpt lat="47.84596" lon="7.16988">
        <ele>553</ele>
        <time>2014-07-26T16:37:20Z</time>
      </trkpt>
      <trkpt lat="47.84588" lon="7.16977">
        <ele>553</ele>
        <time>2014-07-26T16:37:46Z</time>
      </trkpt>
      <trkpt lat="47.84582" lon="7.16965">
        <ele>553</ele>
        <time>2014-07-26T16:37:55Z</time>
      </trkpt>
      <trkpt lat="47.84552" lon="7.16909">
        <ele>546</ele>
        <time>2014-07-26T16:38:35Z</time>
      </trkpt>
      <trkpt lat="47.84548" lon="7.16897">
        <ele>545</ele>
        <time>2014-07-26T16:38:41Z</time>
      </trkpt>
      <trkpt lat="47.8455" lon="7.16868">
        <ele>544</ele>
        <time>2014-07-26T16:38:55Z</time>
      </trkpt>
      <trkpt lat="47.8456" lon="7.16839">
        <ele>543</ele>
        <time>2014-07-26T16:39:22Z</time>
      </trkpt>
      <trkpt lat="47.84554" lon="7.16828">
        <ele>541</ele>
        <time>2014-07-26T16:39:35Z</time>
      </trkpt>
      <trkpt lat="47.84546" lon="7.16821">
        <ele>539</ele>
        <time>2014-07-26T16:39:45Z</time>
      </trkpt>
      <trkpt lat="47.84538" lon="7.16814">
        <ele>539</ele>
        <time>2014-07-26T16:39:54Z</time>
      </trkpt>
      <trkpt lat="47.8453" lon="7.16806">
        <ele>537</ele>
        <time>2014-07-26T16:40:00Z</time>
      </trkpt>
      <trkpt lat="47.84525" lon="7.16807">
        <ele>537</ele>
        <time>2014-07-26T16:40:04Z</time>
      </trkpt>
      <trkpt lat="47.8451" lon="7.16805">
        <ele>539</ele>
        <time>2014-07-26T16:40:14Z</time>
      </trkpt>
      <trkpt lat="47.84501" lon="7.16805">
        <ele>539</ele>
        <time>2014-07-26T16:40:21Z</time>
      </trkpt>
      <trkpt lat="47.84497" lon="7.1681">
        <ele>542</ele>
        <time>2014-07-26T16:40:27Z</time>
      </trkpt>
      <trkpt lat="47.84471" lon="7.16828">
        <ele>533</ele>
        <time>2014-07-26T16:40:50Z</time>
      </trkpt>
      <trkpt lat="47.84467" lon="7.16843">
        <ele>531</ele>
        <time>2014-07-26T16:40:57Z</time>
      </trkpt>
      <trkpt lat="47.84461" lon="7.16845">
        <ele>529</ele>
        <time>2014-07-26T16:41:00Z</time>
      </trkpt>
      <trkpt lat="47.84411" lon="7.16865">
        <ele>516</ele>
        <time>2014-07-26T16:41:31Z</time>
      </trkpt>
      <trkpt lat="47.84401" lon="7.16878">
        <ele>513</ele>
        <time>2014-07-26T16:41:43Z</time>
      </trkpt>
      <trkpt lat="47.84381" lon="7.16882">
        <ele>509</ele>
        <time>2014-07-26T16:41:56Z</time>
      </trkpt>
      <trkpt lat="47.84372" lon="7.16889">
        <ele>509</ele>
        <time>2014-07-26T16:42:03Z</time>
      </trkpt>
      <trkpt lat="47.84362" lon="7.16891">
        <ele>509</ele>
        <time>2014-07-26T16:42:12Z</time>
      </trkpt>
      <trkpt lat="47.84354" lon="7.16901">
        <ele>508</ele>
        <time>2014-07-26T16:42:19Z</time>
      </trkpt>
      <trkpt lat="47.84313" lon="7.16933">
        <ele>499</ele>
        <time>2014-07-26T16:42:54Z</time>
      </trkpt>
      <trkpt lat="47.84295" lon="7.16942">
        <ele>495</ele>
        <time>2014-07-26T16:43:06Z</time>
      </trkpt>
      <trkpt lat="47.84287" lon="7.16949">
        <ele>495</ele>
        <time>2014-07-26T16:43:15Z</time>
      </trkpt>
      <trkpt lat="47.84286" lon="7.16963">
        <ele>494</ele>
        <time>2014-07-26T16:43:24Z</time>
      </trkpt>
      <trkpt lat="47.84287" lon="7.1697">
        <ele>492</ele>
        <time>2014-07-26T16:43:41Z</time>
      </trkpt>
      <trkpt lat="47.84277" lon="7.16975">
        <ele>492</ele>
        <time>2014-07-26T16:43:49Z</time>
      </trkpt>
      <trkpt lat="47.84267" lon="7.16977">
        <ele>492</ele>
        <time>2014-07-26T16:43:57Z</time>
      </trkpt>
      <trkpt lat="47.84257" lon="7.16976">
        <ele>491</ele>
        <time>2014-07-26T16:44:02Z</time>
      </trkpt>
      <trkpt lat="47.84215" lon="7.17008">
        <ele>486</ele>
        <time>2014-07-26T16:44:35Z</time>
      </trkpt>
      <trkpt lat="47.8421" lon="7.17008">
        <ele>485</ele>
        <time>2014-07-26T16:44:39Z</time>
      </trkpt>
      <trkpt lat="47.84164" lon="7.17041">
        <ele>475</ele>
        <time>2014-07-26T16:45:13Z</time>
      </trkpt>
      <trkpt lat="47.84158" lon="7.17043">
        <ele>474</ele>
        <time>2014-07-26T16:45:17Z</time>
      </trkpt>
      <trkpt lat="47.84155" lon="7.17048">
        <ele>473</ele>
        <time>2014-07-26T16:45:20Z</time>
      </trkpt>
      <trkpt lat="47.84151" lon="7.17052">
        <ele>473</ele>
        <time>2014-07-26T16:45:27Z</time>
      </trkpt>
      <trkpt lat="47.84141" lon="7.17058">
        <ele>472</ele>
        <time>2014-07-26T16:45:34Z</time>
      </trkpt>
      <trkpt lat="47.84138" lon="7.17066">
        <ele>472</ele>
        <time>2014-07-26T16:45:37Z</time>
      </trkpt>
      <trkpt lat="47.84129" lon="7.17075">
        <ele>470</ele>
        <time>2014-07-26T16:45:43Z</time>
      </trkpt>
      <trkpt lat="47.84121" lon="7.17079">
        <ele>466</ele>
        <time>2014-07-26T16:46:13Z</time>
      </trkpt>
      <trkpt lat="47.84121" lon="7.17083">
        <ele>466</ele>
        <time>2014-07-26T16:46:25Z</time>
      </trkpt>
      <trkpt lat="47.84114" lon="7.17092">
        <ele>464</ele>
        <time>2014-07-26T16:46:54Z</time>
      </trkpt>
      <trkpt lat="47.84099" lon="7.1711">
        <ele>459</ele>
        <time>2014-07-26T16:47:19Z</time>
      </trkpt>
      <trkpt lat="47.84075" lon="7.17131">
        <ele>457</ele>
        <time>2014-07-26T16:47:48Z</time>
      </trkpt>
      <trkpt lat="47.84059" lon="7.17144">
        <ele>453</ele>
        <time>2014-07-26T16:48:09Z</time>
      </trkpt>
      <trkpt lat="47.84016" lon="7.17155">
        <ele>440</ele>
        <time>2014-07-26T16:48:43Z</time>
      </trkpt>
      <trkpt lat="47.84006" lon="7.17157">
        <ele>439</ele>
        <time>2014-07-26T16:48:50Z</time>
      </trkpt>
      <trkpt lat="47.84" lon="7.17168">
        <ele>438</ele>
        <time>2014-07-26T16:48:56Z</time>
      </trkpt>
      <trkpt lat="47.83991" lon="7.17172">
        <ele>435</ele>
        <time>2014-07-26T16:49:05Z</time>
      </trkpt>
      <trkpt lat="47.83953" lon="7.17176">
        <ele>426</ele>
        <time>2014-07-26T16:49:45Z</time>
      </trkpt>
      <trkpt lat="47.83917" lon="7.17179">
        <ele>415</ele>
        <time>2014-07-26T16:50:16Z</time>
      </trkpt>
      <trkpt lat="47.83892" lon="7.17195">
        <ele>410</ele>
        <time>2014-07-26T16:50:39Z</time>
      </trkpt>
      <trkpt lat="47.83888" lon="7.17207">
        <ele>405</ele>
        <time>2014-07-26T16:50:54Z</time>
      </trkpt>
      <trkpt lat="47.8388" lon="7.17216">
        <ele>402</ele>
        <time>2014-07-26T16:51:07Z</time>
      </trkpt>
      <trkpt lat="47.83871" lon="7.17217">
        <ele>401</ele>
        <time>2014-07-26T16:51:15Z</time>
      </trkpt>
      <trkpt lat="47.83862" lon="7.17221">
        <ele>401</ele>
        <time>2014-07-26T16:51:26Z</time>
      </trkpt>
      <trkpt lat="47.83854" lon="7.17227">
        <ele>399</ele>
        <time>2014-07-26T16:51:37Z</time>
      </trkpt>
      <trkpt lat="47.83844" lon="7.17225">
        <ele>398</ele>
        <time>2014-07-26T16:51:47Z</time>
      </trkpt>
      <trkpt lat="47.8384" lon="7.17229">
        <ele>395</ele>
        <time>2014-07-26T16:52:03Z</time>
      </trkpt>
      <trkpt lat="47.83831" lon="7.17229">
        <ele>394</ele>
        <time>2014-07-26T16:52:18Z</time>
      </trkpt>
      <trkpt lat="47.83816" lon="7.17248">
        <ele>389</ele>
        <time>2014-07-26T16:52:40Z</time>
      </trkpt>
      <trkpt lat="47.83804" lon="7.17287">
        <ele>386</ele>
        <time>2014-07-26T16:53:08Z</time>
      </trkpt>
      <trkpt lat="47.83806" lon="7.17296">
        <ele>385</ele>
        <time>2014-07-26T16:53:31Z</time>
      </trkpt>
      <trkpt lat="47.83803" lon="7.17309">
        <ele>385</ele>
        <time>2014-07-26T16:54:10Z</time>
      </trkpt>
      <trkpt lat="47.83796" lon="7.1735">
        <ele>385</ele>
        <time>2014-07-26T16:54:36Z</time>
      </trkpt>
      <trkpt lat="47.83788" lon="7.17358">
        <ele>384</ele>
        <time>2014-07-26T16:54:48Z</time>
      </trkpt>
      <trkpt lat="47.83783" lon="7.17357">
        <ele>383</ele>
        <time>2014-07-26T16:54:53Z</time>
      </trkpt>
      <trkpt lat="47.83777" lon="7.17358">
        <ele>383</ele>
        <time>2014-07-26T16:54:59Z</time>
      </trkpt>
      <trkpt lat="47.83772" lon="7.17358">
        <ele>384</ele>
        <time>2014-07-26T16:55:04Z</time>
      </trkpt>
      <trkpt lat="47.83763" lon="7.17364">
        <ele>384</ele>
        <time>2014-07-26T16:55:13Z</time>
      </trkpt>
      <trkpt lat="47.83761" lon="7.17379">
        <ele>384</ele>
        <time>2014-07-26T16:55:18Z</time>
      </trkpt>
      <trkpt lat="47.83754" lon="7.17402">
        <ele>385</ele>
        <time>2014-07-26T16:55:28Z</time>
      </trkpt>
      <trkpt lat="47.8375" lon="7.17408">
        <ele>385</ele>
        <time>2014-07-26T16:55:33Z</time>
      </trkpt>
      <trkpt lat="47.83747" lon="7.17415">
        <ele>384</ele>
        <time>2014-07-26T16:55:37Z</time>
      </trkpt>
      <trkpt lat="47.83743" lon="7.17418">
        <ele>384</ele>
        <time>2014-07-26T16:55:41Z</time>
      </trkpt>
      <trkpt lat="47.8374" lon="7.17424">
        <ele>383</ele>
        <time>2014-07-26T16:55:45Z</time>
      </trkpt>
      <trkpt lat="47.83735" lon="7.17427">
        <ele>384</ele>
        <time>2014-07-26T16:55:49Z</time>
      </trkpt>
      <trkpt lat="47.83731" lon="7.17431">
        <ele>383</ele>
        <time>2014-07-26T16:55:53Z</time>
      </trkpt>
      <trkpt lat="47.83727" lon="7.17434">
        <ele>383</ele>
        <time>2014-07-26T16:55:57Z</time>
      </trkpt>
      <trkpt lat="47.83724" lon="7.1744">
        <ele>382</ele>
        <time>2014-07-26T16:56:01Z</time>
      </trkpt>
      <trkpt lat="47.8372" lon="7.17446">
        <ele>382</ele>
        <time>2014-07-26T16:56:05Z</time>
      </trkpt>
      <trkpt lat="47.83719" lon="7.17454">
        <ele>382</ele>
        <time>2014-07-26T16:56:08Z</time>
      </trkpt>
      <trkpt lat="47.83716" lon="7.17469">
        <ele>379</ele>
        <time>2014-07-26T16:56:14Z</time>
      </trkpt>
      <trkpt lat="47.83704" lon="7.17493">
        <ele>377</ele>
        <time>2014-07-26T16:56:27Z</time>
      </trkpt>
      <trkpt lat="47.83699" lon="7.17498">
        <ele>375</ele>
        <time>2014-07-26T16:56:31Z</time>
      </trkpt>
      <trkpt lat="47.83693" lon="7.17513">
        <ele>373</ele>
        <time>2014-07-26T16:56:38Z</time>
      </trkpt>
      <trkpt lat="47.83688" lon="7.17517">
        <ele>372</ele>
        <time>2014-07-26T16:56:42Z</time>
      </trkpt>
      <trkpt lat="47.83685" lon="7.17524">
        <ele>371</ele>
        <time>2014-07-26T16:56:46Z</time>
      </trkpt>
      <trkpt lat="47.83678" lon="7.17533">
        <ele>370</ele>
        <time>2014-07-26T16:56:54Z</time>
      </trkpt>
      <trkpt lat="47.83671" lon="7.17544">
        <ele>370</ele>
        <time>2014-07-26T16:57:03Z</time>
      </trkpt>
      <trkpt lat="47.83657" lon="7.17552">
        <ele>369</ele>
        <time>2014-07-26T16:57:17Z</time>
      </trkpt>
      <trkpt lat="47.83653" lon="7.17556">
        <ele>369</ele>
        <time>2014-07-26T16:57:22Z</time>
      </trkpt>
      <trkpt lat="47.8365" lon="7.17562">
        <ele>369</ele>
        <time>2014-07-26T16:57:26Z</time>
      </trkpt>
      <trkpt lat="47.83647" lon="7.17568">
        <ele>369</ele>
        <time>2014-07-26T16:57:30Z</time>
      </trkpt>
      <trkpt lat="47.83644" lon="7.17586">
        <ele>366</ele>
        <time>2014-07-26T16:57:35Z</time>
      </trkpt>
      <trkpt lat="47.83634" lon="7.17593">
        <ele>368</ele>
        <time>2014-07-26T16:57:45Z</time>
      </trkpt>
      <trkpt lat="47.83629" lon="7.17594">
        <ele>369</ele>
        <time>2014-07-26T16:57:51Z</time>
      </trkpt>
      <trkpt lat="47.83624" lon="7.17596">
        <ele>369</ele>
        <time>2014-07-26T16:57:56Z</time>
      </trkpt>
      <trkpt lat="47.83621" lon="7.17602">
        <ele>368</ele>
        <time>2014-07-26T16:58:00Z</time>
      </trkpt>
      <trkpt lat="47.8362" lon="7.17609">
        <ele>367</ele>
        <time>2014-07-26T16:58:03Z</time>
      </trkpt>
      <trkpt lat="47.83619" lon="7.17618">
        <ele>367</ele>
        <time>2014-07-26T16:58:06Z</time>
      </trkpt>
      <trkpt lat="47.83611" lon="7.17645">
        <ele>364</ele>
        <time>2014-07-26T16:58:21Z</time>
      </trkpt>
      <trkpt lat="47.83606" lon="7.17659">
        <ele>364</ele>
        <time>2014-07-26T16:58:32Z</time>
      </trkpt>
      <trkpt lat="47.83603" lon="7.17666">
        <ele>364</ele>
        <time>2014-07-26T16:58:36Z</time>
      </trkpt>
      <trkpt lat="47.83599" lon="7.17679">
        <ele>362</ele>
        <time>2014-07-26T16:58:43Z</time>
      </trkpt>
      <trkpt lat="47.83591" lon="7.17687">
        <ele>362</ele>
        <time>2014-07-26T16:58:51Z</time>
      </trkpt>
      <trkpt lat="47.83586" lon="7.17685">
        <ele>362</ele>
        <time>2014-07-26T16:58:56Z</time>
      </trkpt>
      <trkpt lat="47.83584" lon="7.17678">
        <ele>362</ele>
        <time>2014-07-26T16:59:01Z</time>
      </trkpt>
      <trkpt lat="47.8358" lon="7.17674">
        <ele>362</ele>
        <time>2014-07-26T16:59:05Z</time>
      </trkpt>
      <trkpt lat="47.83571" lon="7.17657">
        <ele>359</ele>
        <time>2014-07-26T16:59:19Z</time>
      </trkpt>
      <trkpt lat="47.83566" lon="7.17654">
        <ele>360</ele>
        <time>2014-07-26T16:59:24Z</time>
      </trkpt>
      <trkpt lat="47.8356" lon="7.17657">
        <ele>360</ele>
        <time>2014-07-26T16:59:27Z</time>
      </trkpt>
      <trkpt lat="47.83549" lon="7.17665">
        <ele>360</ele>
        <time>2014-07-26T16:59:34Z</time>
      </trkpt>
      <trkpt lat="47.83536" lon="7.17665">
        <ele>359</ele>
        <time>2014-07-26T16:59:39Z</time>
      </trkpt>
      <trkpt lat="47.83527" lon="7.17665">
        <ele>359</ele>
        <time>2014-07-26T16:59:44Z</time>
      </trkpt>
      <trkpt lat="47.83521" lon="7.17666">
        <ele>359</ele>
        <time>2014-07-26T16:59:47Z</time>
      </trkpt>
      <trkpt lat="47.83517" lon="7.17665">
        <ele>359</ele>
        <time>2014-07-26T16:59:50Z</time>
      </trkpt>
      <trkpt lat="47.83508" lon="7.17663">
        <ele>360</ele>
        <time>2014-07-26T16:59:57Z</time>
      </trkpt>
      <trkpt lat="47.83505" lon="7.1767">
        <ele>360</ele>
        <time>2014-07-26T17:00:00Z</time>
      </trkpt>
      <trkpt lat="47.83496" lon="7.17687">
        <ele>359</ele>
        <time>2014-07-26T17:00:09Z</time>
      </trkpt>
      <trkpt lat="47.83491" lon="7.17687">
        <ele>360</ele>
        <time>2014-07-26T17:00:12Z</time>
      </trkpt>
      <trkpt lat="47.83487" lon="7.17689">
        <ele>360</ele>
        <time>2014-07-26T17:00:15Z</time>
      </trkpt>
      <trkpt lat="47.83485" lon="7.177">
        <ele>358</ele>
        <time>2014-07-26T17:00:18Z</time>
      </trkpt>
      <trkpt lat="47.83477" lon="7.17729">
        <ele>352</ele>
        <time>2014-07-26T17:00:30Z</time>
      </trkpt>
      <trkpt lat="47.83471" lon="7.17731">
        <ele>352</ele>
        <time>2014-07-26T17:00:35Z</time>
      </trkpt>
      <trkpt lat="47.83469" lon="7.17738">
        <ele>352</ele>
        <time>2014-07-26T17:00:39Z</time>
      </trkpt>
      <trkpt lat="47.83466" lon="7.17751">
        <ele>351</ele>
        <time>2014-07-26T17:00:46Z</time>
      </trkpt>
      <trkpt lat="47.83452" lon="7.1777">
        <ele>352</ele>
        <time>2014-07-26T17:00:58Z</time>
      </trkpt>
      <trkpt lat="47.83445" lon="7.17781">
        <ele>355</ele>
        <time>2014-07-26T17:01:08Z</time>
      </trkpt>
      <trkpt lat="47.8344" lon="7.17784">
        <ele>355</ele>
        <time>2014-07-26T17:01:12Z</time>
      </trkpt>
      <trkpt lat="47.8343" lon="7.17789">
        <ele>354</ele>
        <time>2014-07-26T17:01:18Z</time>
      </trkpt>
      <trkpt lat="47.83425" lon="7.17791">
        <ele>354</ele>
        <time>2014-07-26T17:01:21Z</time>
      </trkpt>
      <trkpt lat="47.83408" lon="7.17803">
        <ele>351</ele>
        <time>2014-07-26T17:01:33Z</time>
      </trkpt>
      <trkpt lat="47.83405" lon="7.17809">
        <ele>350</ele>
        <time>2014-07-26T17:01:36Z</time>
      </trkpt>
      <trkpt lat="47.83402" lon="7.17815">
        <ele>350</ele>
        <time>2014-07-26T17:01:40Z</time>
      </trkpt>
      <trkpt lat="47.83398" lon="7.17819">
        <ele>350</ele>
        <time>2014-07-26T17:01:44Z</time>
      </trkpt>
      <trkpt lat="47.83394" lon="7.17824">
        <ele>350</ele>
        <time>2014-07-26T17:01:47Z</time>
      </trkpt>
      <trkpt lat="47.8339" lon="7.17829">
        <ele>350</ele>
        <time>2014-07-26T17:01:51Z</time>
      </trkpt>
      <trkpt lat="47.83381" lon="7.17836">
        <ele>350</ele>
        <time>2014-07-26T17:01:59Z</time>
      </trkpt>
      <trkpt lat="47.83372" lon="7.17841">
        <ele>349</ele>
        <time>2014-07-26T17:02:05Z</time>
      </trkpt>
      <trkpt lat="47.83367" lon="7.17841">
        <ele>348</ele>
        <time>2014-07-26T17:02:08Z</time>
      </trkpt>
      <trkpt lat="47.83362" lon="7.1784">
        <ele>348</ele>
        <time>2014-07-26T17:02:11Z</time>
      </trkpt>
      <trkpt lat="47.83358" lon="7.17844">
        <ele>349</ele>
        <time>2014-07-26T17:02:15Z</time>
      </trkpt>
      <trkpt lat="47.83354" lon="7.1785">
        <ele>349</ele>
        <time>2014-07-26T17:02:19Z</time>
      </trkpt>
      <trkpt lat="47.83353" lon="7.17858">
        <ele>347</ele>
        <time>2014-07-26T17:02:21Z</time>
      </trkpt>
      <trkpt lat="47.83349" lon="7.17862">
        <ele>345</ele>
        <time>2014-07-26T17:02:25Z</time>
      </trkpt>
      <trkpt lat="47.83338" lon="7.17864">
        <ele>342</ele>
        <time>2014-07-26T17:02:33Z</time>
      </trkpt>
      <trkpt lat="47.83323" lon="7.17867">
        <ele>343</ele>
        <time>2014-07-26T17:02:45Z</time>
      </trkpt>
      <trkpt lat="47.8332" lon="7.17861">
        <ele>344</ele>
        <time>2014-07-26T17:02:48Z</time>
      </trkpt>
      <trkpt lat="47.83315" lon="7.17852">
        <ele>346</ele>
        <time>2014-07-26T17:02:53Z</time>
      </trkpt>
      <trkpt lat="47.83309" lon="7.17853">
        <ele>347</ele>
        <time>2014-07-26T17:02:57Z</time>
      </trkpt>
      <trkpt lat="47.83304" lon="7.17856">
        <ele>347</ele>
        <time>2014-07-26T17:03:01Z</time>
      </trkpt>
      <trkpt lat="47.83299" lon="7.17858">
        <ele>346</ele>
        <time>2014-07-26T17:03:05Z</time>
      </trkpt>
      <trkpt lat="47.83278" lon="7.17855">
        <ele>343</ele>
        <time>2014-07-26T17:03:20Z</time>
      </trkpt>
      <trkpt lat="47.83259" lon="7.17851">
        <ele>343</ele>
        <time>2014-07-26T17:03:34Z</time>
      </trkpt>
      <trkpt lat="47.83234" lon="7.17835">
        <ele>339</ele>
        <time>2014-07-26T17:03:56Z</time>
      </trkpt>
      <trkpt lat="47.83215" lon="7.17839">
        <ele>336</ele>
        <time>2014-07-26T17:04:10Z</time>
      </trkpt>
      <trkpt lat="47.83207" lon="7.17841">
        <ele>336</ele>
        <time>2014-07-26T17:04:16Z</time>
      </trkpt>
      <trkpt lat="47.83198" lon="7.1785">
        <ele>336</ele>
        <time>2014-07-26T17:04:22Z</time>
      </trkpt>
      <trkpt lat="47.8319" lon="7.17855">
        <ele>335</ele>
        <time>2014-07-26T17:04:27Z</time>
      </trkpt>
      <trkpt lat="47.83178" lon="7.1786">
        <ele>335</ele>
        <time>2014-07-26T17:04:34Z</time>
      </trkpt>
      <trkpt lat="47.83173" lon="7.17864">
        <ele>335</ele>
        <time>2014-07-26T17:04:38Z</time>
      </trkpt>
      <trkpt lat="47.83167" lon="7.17867">
        <ele>335</ele>
        <time>2014-07-26T17:04:42Z</time>
      </trkpt>
      <trkpt lat="47.83163" lon="7.17869">
        <ele>335</ele>
        <time>2014-07-26T17:04:45Z</time>
      </trkpt>
      <trkpt lat="47.83158" lon="7.17871">
        <ele>335</ele>
        <time>2014-07-26T17:04:48Z</time>
      </trkpt>
      <trkpt lat="47.83148" lon="7.17876">
        <ele>335</ele>
        <time>2014-07-26T17:04:54Z</time>
      </trkpt>
      <trkpt lat="47.83144" lon="7.17879">
        <ele>335</ele>
        <time>2014-07-26T17:04:57Z</time>
      </trkpt>
      <trkpt lat="47.83136" lon="7.17879">
        <ele>336</ele>
        <time>2014-07-26T17:05:04Z</time>
      </trkpt>
      <trkpt lat="47.83132" lon="7.17881">
        <ele>336</ele>
        <time>2014-07-26T17:05:08Z</time>
      </trkpt>
      <trkpt lat="47.83127" lon="7.17883">
        <ele>336</ele>
        <time>2014-07-26T17:05:11Z</time>
      </trkpt>
      <trkpt lat="47.83116" lon="7.17883">
        <ele>338</ele>
        <time>2014-07-26T17:05:19Z</time>
      </trkpt>
      <trkpt lat="47.83111" lon="7.17888">
        <ele>337</ele>
        <time>2014-07-26T17:05:23Z</time>
      </trkpt>
      <trkpt lat="47.83106" lon="7.17889">
        <ele>337</ele>
        <time>2014-07-26T17:05:26Z</time>
      </trkpt>
      <trkpt lat="47.83091" lon="7.17888">
        <ele>339</ele>
        <time>2014-07-26T17:05:37Z</time>
      </trkpt>
      <trkpt lat="47.83086" lon="7.17888">
        <ele>340</ele>
        <time>2014-07-26T17:05:42Z</time>
      </trkpt>
      <trkpt lat="47.83082" lon="7.17889">
        <ele>340</ele>
        <time>2014-07-26T17:05:45Z</time>
      </trkpt>
      <trkpt lat="47.83072" lon="7.17892">
        <ele>339</ele>
        <time>2014-07-26T17:05:51Z</time>
      </trkpt>
      <trkpt lat="47.83062" lon="7.17895">
        <ele>339</ele>
        <time>2014-07-26T17:05:57Z</time>
      </trkpt>
      <trkpt lat="47.83049" lon="7.17909">
        <ele>336</ele>
        <time>2014-07-26T17:06:07Z</time>
      </trkpt>
      <trkpt lat="47.83027" lon="7.17926">
        <ele>334</ele>
        <time>2014-07-26T17:06:24Z</time>
      </trkpt>
      <trkpt lat="47.83022" lon="7.17928">
        <ele>334</ele>
        <time>2014-07-26T17:06:27Z</time>
      </trkpt>
      <trkpt lat="47.83017" lon="7.17925">
        <ele>335</ele>
        <time>2014-07-26T17:06:30Z</time>
      </trkpt>
      <trkpt lat="47.83007" lon="7.1793">
        <ele>334</ele>
        <time>2014-07-26T17:06:38Z</time>
      </trkpt>
      <trkpt lat="47.83002" lon="7.17935">
        <ele>333</ele>
        <time>2014-07-26T17:06:42Z</time>
      </trkpt>
      <trkpt lat="47.82984" lon="7.17963">
        <ele>335</ele>
        <time>2014-07-26T17:07:01Z</time>
      </trkpt>
      <trkpt lat="47.82979" lon="7.17968">
        <ele>334</ele>
        <time>2014-07-26T17:07:05Z</time>
      </trkpt>
      <trkpt lat="47.82975" lon="7.17972">
        <ele>335</ele>
        <time>2014-07-26T17:07:09Z</time>
      </trkpt>
      <trkpt lat="47.82971" lon="7.17986">
        <ele>334</ele>
        <time>2014-07-26T17:07:15Z</time>
      </trkpt>
      <trkpt lat="47.82965" lon="7.17999">
        <ele>333</ele>
        <time>2014-07-26T17:07:23Z</time>
      </trkpt>
      <trkpt lat="47.8296" lon="7.18001">
        <ele>333</ele>
        <time>2014-07-26T17:07:28Z</time>
      </trkpt>
      <trkpt lat="47.82955" lon="7.18002">
        <ele>333</ele>
        <time>2014-07-26T17:07:31Z</time>
      </trkpt>
      <trkpt lat="47.8295" lon="7.18005">
        <ele>333</ele>
        <time>2014-07-26T17:07:34Z</time>
      </trkpt>
      <trkpt lat="47.82942" lon="7.18012">
        <ele>334</ele>
        <time>2014-07-26T17:07:40Z</time>
      </trkpt>
      <trkpt lat="47.82936" lon="7.1801">
        <ele>335</ele>
        <time>2014-07-26T17:07:43Z</time>
      </trkpt>
      <trkpt lat="47.82931" lon="7.18009">
        <ele>335</ele>
        <time>2014-07-26T17:07:47Z</time>
      </trkpt>
      <trkpt lat="47.82929" lon="7.18016">
        <ele>334</ele>
        <time>2014-07-26T17:07:49Z</time>
      </trkpt>
      <trkpt lat="47.82925" lon="7.18022">
        <ele>335</ele>
        <time>2014-07-26T17:07:53Z</time>
      </trkpt>
      <trkpt lat="47.82921" lon="7.18024">
        <ele>335</ele>
        <time>2014-07-26T17:07:56Z</time>
      </trkpt>
      <trkpt lat="47.82914" lon="7.18024">
        <ele>335</ele>
        <time>2014-07-26T17:08:00Z</time>
      </trkpt>
      <trkpt lat="47.82909" lon="7.18026">
        <ele>337</ele>
        <time>2014-07-26T17:08:04Z</time>
      </trkpt>
      <trkpt lat="47.82906" lon="7.18031">
        <ele>337</ele>
        <time>2014-07-26T17:08:08Z</time>
      </trkpt>
      <trkpt lat="47.829" lon="7.18033">
        <ele>337</ele>
        <time>2014-07-26T17:08:12Z</time>
      </trkpt>
      <trkpt lat="47.82894" lon="7.18032">
        <ele>336</ele>
        <time>2014-07-26T17:08:15Z</time>
      </trkpt>
      <trkpt lat="47.8289" lon="7.18037">
        <ele>335</ele>
        <time>2014-07-26T17:08:18Z</time>
      </trkpt>
      <trkpt lat="47.82877" lon="7.1805">
        <ele>333</ele>
        <time>2014-07-26T17:08:28Z</time>
      </trkpt>
      <trkpt lat="47.82869" lon="7.1806">
        <ele>332</ele>
        <time>2014-07-26T17:08:36Z</time>
      </trkpt>
      <trkpt lat="47.82845" lon="7.18072">
        <ele>333</ele>
        <time>2014-07-26T17:08:53Z</time>
      </trkpt>
      <trkpt lat="47.82842" lon="7.18075">
        <ele>333</ele>
        <time>2014-07-26T17:08:56Z</time>
      </trkpt>
      <trkpt lat="47.82837" lon="7.18079">
        <ele>332</ele>
        <time>2014-07-26T17:09:00Z</time>
      </trkpt>
      <trkpt lat="47.82832" lon="7.18081">
        <ele>332</ele>
        <time>2014-07-26T17:09:04Z</time>
      </trkpt>
      <trkpt lat="47.82827" lon="7.18082">
        <ele>332</ele>
        <time>2014-07-26T17:09:08Z</time>
      </trkpt>
      <trkpt lat="47.82818" lon="7.18081">
        <ele>333</ele>
        <time>2014-07-26T17:09:14Z</time>
      </trkpt>
      <trkpt lat="47.82814" lon="7.18084">
        <ele>334</ele>
        <time>2014-07-26T17:09:18Z</time>
      </trkpt>
      <trkpt lat="47.82808" lon="7.18098">
        <ele>333</ele>
        <time>2014-07-26T17:09:24Z</time>
      </trkpt>
      <trkpt lat="47.82803" lon="7.18101">
        <ele>332</ele>
        <time>2014-07-26T17:09:28Z</time>
      </trkpt>
      <trkpt lat="47.82798" lon="7.18103">
        <ele>332</ele>
        <time>2014-07-26T17:09:32Z</time>
      </trkpt>
      <trkpt lat="47.82795" lon="7.18108">
        <ele>331</ele>
        <time>2014-07-26T17:09:35Z</time>
      </trkpt>
      <trkpt lat="47.8279" lon="7.18112">
        <ele>330</ele>
        <time>2014-07-26T17:09:40Z</time>
      </trkpt>
      <trkpt lat="47.82776" lon="7.18114">
        <ele>331</ele>
        <time>2014-07-26T17:09:49Z</time>
      </trkpt>
      <trkpt lat="47.8277" lon="7.18119">
        <ele>331</ele>
        <time>2014-07-26T17:09:53Z</time>
      </trkpt>
      <trkpt lat="47.82765" lon="7.18119">
        <ele>331</ele>
        <time>2014-07-26T17:09:57Z</time>
      </trkpt>
      <trkpt lat="47.8276" lon="7.18124">
        <ele>331</ele>
        <time>2014-07-26T17:10:01Z</time>
      </trkpt>
      <trkpt lat="47.82746" lon="7.18124">
        <ele>327</ele>
        <time>2014-07-26T17:10:14Z</time>
      </trkpt>
      <trkpt lat="47.82741" lon="7.18124">
        <ele>327</ele>
        <time>2014-07-26T17:10:18Z</time>
      </trkpt>
      <trkpt lat="47.82736" lon="7.18125">
        <ele>328</ele>
        <time>2014-07-26T17:10:21Z</time>
      </trkpt>
      <trkpt lat="47.82731" lon="7.18127">
        <ele>328</ele>
        <time>2014-07-26T17:10:24Z</time>
      </trkpt>
      <trkpt lat="47.82726" lon="7.18126">
        <ele>329</ele>
        <time>2014-07-26T17:10:27Z</time>
      </trkpt>
      <trkpt lat="47.82717" lon="7.18118">
        <ele>331</ele>
        <time>2014-07-26T17:10:34Z</time>
      </trkpt>
      <trkpt lat="47.82712" lon="7.18115">
        <ele>331</ele>
        <time>2014-07-26T17:10:38Z</time>
      </trkpt>
      <trkpt lat="47.82702" lon="7.18109">
        <ele>332</ele>
        <time>2014-07-26T17:10:45Z</time>
      </trkpt>
      <trkpt lat="47.82687" lon="7.18104">
        <ele>331</ele>
        <time>2014-07-26T17:10:58Z</time>
      </trkpt>
      <trkpt lat="47.82682" lon="7.18104">
        <ele>331</ele>
        <time>2014-07-26T17:11:01Z</time>
      </trkpt>
      <trkpt lat="47.82676" lon="7.18104">
        <ele>331</ele>
        <time>2014-07-26T17:11:04Z</time>
      </trkpt>
      <trkpt lat="47.82646" lon="7.1809">
        <ele>327</ele>
        <time>2014-07-26T17:11:25Z</time>
      </trkpt>
      <trkpt lat="47.82642" lon="7.18087">
        <ele>327</ele>
        <time>2014-07-26T17:11:27Z</time>
      </trkpt>
      <trkpt lat="47.82635" lon="7.18085">
        <ele>326</ele>
        <time>2014-07-26T17:11:31Z</time>
      </trkpt>
      <trkpt lat="47.8263" lon="7.18085">
        <ele>326</ele>
        <time>2014-07-26T17:11:35Z</time>
      </trkpt>
      <trkpt lat="47.82626" lon="7.18083">
        <ele>325</ele>
        <time>2014-07-26T17:11:40Z</time>
      </trkpt>
      <trkpt lat="47.82616" lon="7.18082">
        <ele>324</ele>
        <time>2014-07-26T17:11:48Z</time>
      </trkpt>
      <trkpt lat="47.82603" lon="7.1807">
        <ele>325</ele>
        <time>2014-07-26T17:11:59Z</time>
      </trkpt>
      <trkpt lat="47.82597" lon="7.18071">
        <ele>326</ele>
        <time>2014-07-26T17:12:03Z</time>
      </trkpt>
      <trkpt lat="47.82593" lon="7.18074">
        <ele>326</ele>
        <time>2014-07-26T17:12:07Z</time>
      </trkpt>
      <trkpt lat="47.82588" lon="7.18073">
        <ele>326</ele>
        <time>2014-07-26T17:12:10Z</time>
      </trkpt>
      <trkpt lat="47.82578" lon="7.18078">
        <ele>325</ele>
        <time>2014-07-26T17:12:17Z</time>
      </trkpt>
      <trkpt lat="47.82573" lon="7.18079">
        <ele>326</ele>
        <time>2014-07-26T17:12:21Z</time>
      </trkpt>
      <trkpt lat="47.82568" lon="7.18081">
        <ele>325</ele>
        <time>2014-07-26T17:12:25Z</time>
      </trkpt>
      <trkpt lat="47.82562" lon="7.18083">
        <ele>324</ele>
        <time>2014-07-26T17:12:29Z</time>
      </trkpt>
      <trkpt lat="47.82558" lon="7.18083">
        <ele>324</ele>
        <time>2014-07-26T17:12:33Z</time>
      </trkpt>
      <trkpt lat="47.82553" lon="7.18084">
        <ele>323</ele>
        <time>2014-07-26T17:12:37Z</time>
      </trkpt>
      <trkpt lat="47.82548" lon="7.18088">
        <ele>323</ele>
        <time>2014-07-26T17:12:41Z</time>
      </trkpt>
      <trkpt lat="47.82544" lon="7.18092">
        <ele>322</ele>
        <time>2014-07-26T17:12:44Z</time>
      </trkpt>
      <trkpt lat="47.8254" lon="7.18094">
        <ele>322</ele>
        <time>2014-07-26T17:12:47Z</time>
      </trkpt>
      <trkpt lat="47.82529" lon="7.18095">
        <ele>323</ele>
        <time>2014-07-26T17:12:53Z</time>
      </trkpt>
      <trkpt lat="47.8252" lon="7.18105">
        <ele>321</ele>
        <time>2014-07-26T17:13:00Z</time>
      </trkpt>
      <trkpt lat="47.82517" lon="7.1811">
        <ele>320</ele>
        <time>2014-07-26T17:13:04Z</time>
      </trkpt>
      <trkpt lat="47.82512" lon="7.18115">
        <ele>319</ele>
        <time>2014-07-26T17:13:09Z</time>
      </trkpt>
      <trkpt lat="47.82507" lon="7.18117">
        <ele>319</ele>
        <time>2014-07-26T17:13:13Z</time>
      </trkpt>
      <trkpt lat="47.82503" lon="7.1812">
        <ele>318</ele>
        <time>2014-07-26T17:13:17Z</time>
      </trkpt>
      <trkpt lat="47.82494" lon="7.18127">
        <ele>317</ele>
        <time>2014-07-26T17:13:25Z</time>
      </trkpt>
      <trkpt lat="47.82485" lon="7.18138">
        <ele>319</ele>
        <time>2014-07-26T17:13:33Z</time>
      </trkpt>
      <trkpt lat="47.8248" lon="7.18141">
        <ele>319</ele>
        <time>2014-07-26T17:13:37Z</time>
      </trkpt>
      <trkpt lat="47.82475" lon="7.18146">
        <ele>319</ele>
        <time>2014-07-26T17:13:41Z</time>
      </trkpt>
      <trkpt lat="47.82465" lon="7.18152">
        <ele>316</ele>
        <time>2014-07-26T17:13:48Z</time>
      </trkpt>
      <trkpt lat="47.8245" lon="7.18155">
        <ele>315</ele>
        <time>2014-07-26T17:13:58Z</time>
      </trkpt>
      <trkpt lat="47.82443" lon="7.18165">
        <ele>313</ele>
        <time>2014-07-26T17:14:05Z</time>
      </trkpt>
      <trkpt lat="47.82431" lon="7.18177">
        <ele>312</ele>
        <time>2014-07-26T17:14:15Z</time>
      </trkpt>
      <trkpt lat="47.8242" lon="7.1818">
        <ele>313</ele>
        <time>2014-07-26T17:14:23Z</time>
      </trkpt>
      <trkpt lat="47.82415" lon="7.18179">
        <ele>315</ele>
        <time>2014-07-26T17:14:27Z</time>
      </trkpt>
      <trkpt lat="47.8241" lon="7.18176">
        <ele>314</ele>
        <time>2014-07-26T17:14:30Z</time>
      </trkpt>
      <trkpt lat="47.82406" lon="7.18174">
        <ele>314</ele>
        <time>2014-07-26T17:14:34Z</time>
      </trkpt>
      <trkpt lat="47.82401" lon="7.18176">
        <ele>315</ele>
        <time>2014-07-26T17:14:39Z</time>
      </trkpt>
      <trkpt lat="47.82396" lon="7.18177">
        <ele>315</ele>
        <time>2014-07-26T17:14:42Z</time>
      </trkpt>
      <trkpt lat="47.82391" lon="7.18178">
        <ele>314</ele>
        <time>2014-07-26T17:14:46Z</time>
      </trkpt>
      <trkpt lat="47.8237" lon="7.1817">
        <ele>310</ele>
        <time>2014-07-26T17:15:00Z</time>
      </trkpt>
      <trkpt lat="47.82365" lon="7.18166">
        <ele>310</ele>
        <time>2014-07-26T17:15:06Z</time>
      </trkpt>
      <trkpt lat="47.8236" lon="7.18163">
        <ele>309</ele>
        <time>2014-07-26T17:15:11Z</time>
      </trkpt>
      <trkpt lat="47.82357" lon="7.18158">
        <ele>308</ele>
        <time>2014-07-26T17:15:17Z</time>
      </trkpt>
      <trkpt lat="47.82351" lon="7.18157">
        <ele>307</ele>
        <time>2014-07-26T17:15:23Z</time>
      </trkpt>
      <trkpt lat="47.82346" lon="7.18155">
        <ele>307</ele>
        <time>2014-07-26T17:15:27Z</time>
      </trkpt>
      <trkpt lat="47.82336" lon="7.18155">
        <ele>307</ele>
        <time>2014-07-26T17:15:33Z</time>
      </trkpt>
      <trkpt lat="47.8231" lon="7.18145">
        <ele>310</ele>
        <time>2014-07-26T17:15:50Z</time>
      </trkpt>
      <trkpt lat="47.82305" lon="7.18148">
        <ele>309</ele>
        <time>2014-07-26T17:15:53Z</time>
      </trkpt>
      <trkpt lat="47.823" lon="7.18149">
        <ele>309</ele>
        <time>2014-07-26T17:15:56Z</time>
      </trkpt>
      <trkpt lat="47.82295" lon="7.18147">
        <ele>309</ele>
        <time>2014-07-26T17:15:59Z</time>
      </trkpt>
      <trkpt lat="47.82279" lon="7.18144">
        <ele>309</ele>
        <time>2014-07-26T17:16:10Z</time>
      </trkpt>
      <trkpt lat="47.82265" lon="7.1814">
        <ele>308</ele>
        <time>2014-07-26T17:16:20Z</time>
      </trkpt>
      <trkpt lat="47.8226" lon="7.18141">
        <ele>307</ele>
        <time>2014-07-26T17:16:23Z</time>
      </trkpt>
      <trkpt lat="47.82255" lon="7.1814">
        <ele>308</ele>
        <time>2014-07-26T17:16:26Z</time>
      </trkpt>
      <trkpt lat="47.82244" lon="7.18137">
        <ele>308</ele>
        <time>2014-07-26T17:16:33Z</time>
      </trkpt>
      <trkpt lat="47.82233" lon="7.18135">
        <ele>307</ele>
        <time>2014-07-26T17:16:42Z</time>
      </trkpt>
      <trkpt lat="47.82213" lon="7.18131">
        <ele>307</ele>
        <time>2014-07-26T17:16:55Z</time>
      </trkpt>
      <trkpt lat="47.82193" lon="7.1812">
        <ele>308</ele>
        <time>2014-07-26T17:17:11Z</time>
      </trkpt>
      <trkpt lat="47.82184" lon="7.18111">
        <ele>307</ele>
        <time>2014-07-26T17:17:21Z</time>
      </trkpt>
      <trkpt lat="47.82173" lon="7.18111">
        <ele>307</ele>
        <time>2014-07-26T17:17:30Z</time>
      </trkpt>
      <trkpt lat="47.82159" lon="7.18106">
        <ele>305</ele>
        <time>2014-07-26T17:17:40Z</time>
      </trkpt>
      <trkpt lat="47.82142" lon="7.18105">
        <ele>304</ele>
        <time>2014-07-26T17:17:50Z</time>
      </trkpt>
      <trkpt lat="47.82136" lon="7.18105">
        <ele>303</ele>
        <time>2014-07-26T17:17:54Z</time>
      </trkpt>
      <trkpt lat="47.82132" lon="7.18101">
        <ele>303</ele>
        <time>2014-07-26T17:17:58Z</time>
      </trkpt>
      <trkpt lat="47.82127" lon="7.18097">
        <ele>303</ele>
        <time>2014-07-26T17:18:02Z</time>
      </trkpt>
      <trkpt lat="47.82104" lon="7.18082">
        <ele>305</ele>
        <time>2014-07-26T17:18:22Z</time>
      </trkpt>
      <trkpt lat="47.82088" lon="7.1808">
        <ele>304</ele>
        <time>2014-07-26T17:18:34Z</time>
      </trkpt>
      <trkpt lat="47.82077" lon="7.18077">
        <ele>305</ele>
        <time>2014-07-26T17:18:42Z</time>
      </trkpt>
      <trkpt lat="47.82066" lon="7.18075">
        <ele>304</ele>
        <time>2014-07-26T17:18:49Z</time>
      </trkpt>
      <trkpt lat="47.82052" lon="7.18066">
        <ele>305</ele>
        <time>2014-07-26T17:19:03Z</time>
      </trkpt>
      <trkpt lat="47.82046" lon="7.18059">
        <ele>308</ele>
        <time>2014-07-26T17:19:10Z</time>
      </trkpt>
      <trkpt lat="47.82043" lon="7.18053">
        <ele>307</ele>
        <time>2014-07-26T17:19:14Z</time>
      </trkpt>
      <trkpt lat="47.82042" lon="7.18049">
        <ele>308</ele>
        <time>2014-07-26T17:19:20Z</time>
      </trkpt>
      <trkpt lat="47.82042" lon="7.18042">
        <ele>310</ele>
        <time>2014-07-26T17:19:40Z</time>
      </trkpt>
      <trkpt lat="47.8204" lon="7.18038">
        <ele>310</ele>
        <time>2014-07-26T17:20:21Z</time>
      </trkpt>
      <trkpt lat="47.82043" lon="7.18031">
        <ele>310</ele>
        <time>2014-07-26T17:20:34Z</time>
      </trkpt>
      <trkpt lat="47.82049" lon="7.1802">
        <ele>309</ele>
        <time>2014-07-26T17:20:42Z</time>
      </trkpt>
      <trkpt lat="47.82056" lon="7.18009">
        <ele>309</ele>
        <time>2014-07-26T17:20:51Z</time>
      </trkpt>
      <trkpt lat="47.82064" lon="7.17976">
        <ele>308</ele>
        <time>2014-07-26T17:21:08Z</time>
      </trkpt>
      <trkpt lat="47.82065" lon="7.17968">
        <ele>308</ele>
        <time>2014-07-26T17:21:12Z</time>
      </trkpt>
      <trkpt lat="47.82068" lon="7.1796">
        <ele>308</ele>
        <time>2014-07-26T17:21:16Z</time>
      </trkpt>
      <trkpt lat="47.82072" lon="7.17946">
        <ele>309</ele>
        <time>2014-07-26T17:21:22Z</time>
      </trkpt>
      <trkpt lat="47.82078" lon="7.17927">
        <ele>309</ele>
        <time>2014-07-26T17:21:33Z</time>
      </trkpt>
      <trkpt lat="47.82079" lon="7.1792">
        <ele>310</ele>
        <time>2014-07-26T17:21:37Z</time>
      </trkpt>
      <trkpt lat="47.82077" lon="7.17914">
        <ele>310</ele>
        <time>2014-07-26T17:21:42Z</time>
      </trkpt>
      <trkpt lat="47.82072" lon="7.17914">
        <ele>308</ele>
        <time>2014-07-26T17:21:47Z</time>
      </trkpt>
      <trkpt lat="47.82068" lon="7.1791">
        <ele>308</ele>
        <time>2014-07-26T17:21:51Z</time>
      </trkpt>
      <trkpt lat="47.82058" lon="7.17902">
        <ele>309</ele>
        <time>2014-07-26T17:21:59Z</time>
      </trkpt>
      <trkpt lat="47.82054" lon="7.17899">
        <ele>310</ele>
        <time>2014-07-26T17:22:03Z</time>
      </trkpt>
      <trkpt lat="47.8205" lon="7.17894">
        <ele>309</ele>
        <time>2014-07-26T17:22:08Z</time>
      </trkpt>
      <trkpt lat="47.82047" lon="7.17888">
        <ele>309</ele>
        <time>2014-07-26T17:22:12Z</time>
      </trkpt>
      <trkpt lat="47.82043" lon="7.17884">
        <ele>309</ele>
        <time>2014-07-26T17:22:16Z</time>
      </trkpt>
      <trkpt lat="47.82038" lon="7.17883">
        <ele>309</ele>
        <time>2014-07-26T17:22:19Z</time>
      </trkpt>
      <trkpt lat="47.8202" lon="7.1787">
        <ele>312</ele>
        <time>2014-07-26T17:22:39Z</time>
      </trkpt>
      <trkpt lat="47.82016" lon="7.17865">
        <ele>312</ele>
        <time>2014-07-26T17:22:43Z</time>
      </trkpt>
      <trkpt lat="47.82003" lon="7.17857">
        <ele>311</ele>
        <time>2014-07-26T17:22:52Z</time>
      </trkpt>
      <trkpt lat="47.81996" lon="7.17849">
        <ele>311</ele>
        <time>2014-07-26T17:22:59Z</time>
      </trkpt>
      <trkpt lat="47.81993" lon="7.17836">
        <ele>311</ele>
        <time>2014-07-26T17:23:05Z</time>
      </trkpt>
      <trkpt lat="47.81984" lon="7.1783">
        <ele>311</ele>
        <time>2014-07-26T17:23:12Z</time>
      </trkpt>
      <trkpt lat="47.81985" lon="7.17816">
        <ele>311</ele>
        <time>2014-07-26T17:23:21Z</time>
      </trkpt>
      <trkpt lat="47.81983" lon="7.17811">
        <ele>310</ele>
        <time>2014-07-26T17:23:44Z</time>
      </trkpt>
      <trkpt lat="47.81984" lon="7.17804">
        <ele>310</ele>
        <time>2014-07-26T17:24:06Z</time>
      </trkpt>
      <trkpt lat="47.81981" lon="7.17805">
        <ele>309</ele>
        <time>2014-07-26T17:24:23Z</time>
      </trkpt>
      <trkpt lat="47.81981" lon="7.17811">
        <ele>308</ele>
        <time>2014-07-26T17:25:15Z</time>
      </trkpt>
      <trkpt lat="47.8198" lon="7.17819">
        <ele>308</ele>
        <time>2014-07-26T17:26:34Z</time>
      </trkpt>
      <trkpt lat="47.81822" lon="7.18053">
        <ele>307</ele>
        <time>2014-07-26T17:27:05Z</time>
      </trkpt>
      <trkpt lat="47.81817" lon="7.18055">
        <ele>307</ele>
        <time>2014-07-26T17:27:06Z</time>
      </trkpt>
      <trkpt lat="47.81812" lon="7.18054">
        <ele>307</ele>
        <time>2014-07-26T17:27:09Z</time>
      </trkpt>
      <trkpt lat="47.81633" lon="7.17813">
        <ele>300</ele>
        <time>2014-07-26T17:27:39Z</time>
      </trkpt>
      <trkpt lat="47.81485" lon="7.17825">
        <ele>296</ele>
        <time>2014-07-26T17:27:54Z</time>
      </trkpt>
      <trkpt lat="47.81469" lon="7.17847">
        <ele>296</ele>
        <time>2014-07-26T17:27:57Z</time>
      </trkpt>
      <trkpt lat="47.81431" lon="7.17917">
        <ele>294</ele>
        <time>2014-07-26T17:28:07Z</time>
      </trkpt>
      <trkpt lat="47.8121" lon="7.17947">
        <ele>292</ele>
        <time>2014-07-26T17:28:26Z</time>
      </trkpt>
      <trkpt lat="47.80901" lon="7.17836">
        <ele>292</ele>
        <time>2014-07-26T17:28:56Z</time>
      </trkpt>
      <trkpt lat="47.80895" lon="7.17835">
        <ele>293</ele>
        <time>2014-07-26T17:28:58Z</time>
      </trkpt>
      <trkpt lat="47.80889" lon="7.17834">
        <ele>294</ele>
        <time>2014-07-26T17:29:37Z</time>
      </trkpt>
      <trkpt lat="47.80886" lon="7.17815">
        <ele>294</ele>
        <time>2014-07-26T17:29:42Z</time>
      </trkpt>
      <trkpt lat="47.80896" lon="7.1758">
        <ele>296</ele>
        <time>2014-07-26T17:30:01Z</time>
      </trkpt>
      <trkpt lat="47.80881" lon="7.17567">
        <ele>296</ele>
        <time>2014-07-26T17:30:03Z</time>
      </trkpt>
      <trkpt lat="47.80683" lon="7.17545">
        <ele>298</ele>
        <time>2014-07-26T17:30:41Z</time>
      </trkpt>
      <trkpt lat="47.80386" lon="7.1761">
        <ele>297</ele>
        <time>2014-07-26T17:31:12Z</time>
      </trkpt>
      <trkpt lat="47.80321" lon="7.1763">
        <ele>299</ele>
        <time>2014-07-26T17:31:20Z</time>
      </trkpt>
      <trkpt lat="47.79977" lon="7.17466">
        <ele>300</ele>
        <time>2014-07-26T17:31:51Z</time>
      </trkpt>
      <trkpt lat="47.7959" lon="7.17274">
        <ele>301</ele>
        <time>2014-07-26T17:32:21Z</time>
      </trkpt>
      <trkpt lat="47.79394" lon="7.17173">
        <ele>301</ele>
        <time>2014-07-26T17:32:37Z</time>
      </trkpt>
      <trkpt lat="47.79394" lon="7.17147">
        <ele>301</ele>
        <time>2014-07-26T17:32:39Z</time>
      </trkpt>
      <trkpt lat="47.79405" lon="7.17136">
        <ele>301</ele>
        <time>2014-07-26T17:32:40Z</time>
      </trkpt>
      <trkpt lat="47.79437" lon="7.16956">
        <ele>304</ele>
        <time>2014-07-26T17:32:53Z</time>
      </trkpt>
      <trkpt lat="47.79435" lon="7.16949">
        <ele>304</ele>
        <time>2014-07-26T17:32:54Z</time>
      </trkpt>
      <trkpt lat="47.79408" lon="7.16921">
        <ele>304</ele>
        <time>2014-07-26T17:33:00Z</time>
      </trkpt>
      <trkpt lat="47.79389" lon="7.16859">
        <ele>304</ele>
        <time>2014-07-26T17:33:06Z</time>
      </trkpt>
      <trkpt lat="47.79398" lon="7.16812">
        <ele>304</ele>
        <time>2014-07-26T17:33:11Z</time>
      </trkpt>
      <trkpt lat="47.79408" lon="7.16806">
        <ele>304</ele>
        <time>2014-07-26T17:33:13Z</time>
      </trkpt>
      <trkpt lat="47.79427" lon="7.16811">
        <ele>304</ele>
        <time>2014-07-26T17:33:20Z</time>
      </trkpt>
      <trkpt lat="47.79432" lon="7.1679">
        <ele>304</ele>
        <time>2014-07-26T17:33:24Z</time>
      </trkpt>
      <trkpt lat="47.79427" lon="7.1678">
        <ele>304</ele>
        <time>2014-07-26T17:33:29Z</time>
      </trkpt>
    </trkseg>
  </trk>
</gpx>